<?xml version="1.0" encoding="UTF-8" standalone="no" ?>
 
<gpx xmlns="http://www.topografix.com/GPX/1/1" creator="bikehike.co.uk" version="1.1" 
    xmlns:xsi="http://www.w3.org/2001/XMLSchema-instance" 
    xsi:schemaLocation="http://www.topografix.com/GPX/1/1 http://www.topografix.com/GPX/1/1/gpx.xsd">


  <trk>
    <name>bas-cal03-act</name>
    <trkseg>
      <trkpt lat="48.376911" lon="6.290143">
       <ele>266.64</ele>
       <time>2014-11-07T17:29:25Z</time>
      </trkpt>
      <trkpt lat="48.377098" lon="6.289525">
       <ele>266.17</ele>
       <time>2014-11-07T17:29:34Z</time>
      </trkpt>
      <trkpt lat="48.377155" lon="6.289131">
       <ele>265.63</ele>
       <time>2014-11-07T17:29:39Z</time>
      </trkpt>
      <trkpt lat="48.377185" lon="6.288505">
       <ele>265.01</ele>
       <time>2014-11-07T17:29:48Z</time>
      </trkpt>
      <trkpt lat="48.377178" lon="6.288146">
       <ele>264.84</ele>
       <time>2014-11-07T17:29:53Z</time>
      </trkpt>
      <trkpt lat="48.377147" lon="6.287967">
       <ele>264.93</ele>
       <time>2014-11-07T17:29:56Z</time>
      </trkpt>
      <trkpt lat="48.377010" lon="6.287631">
       <ele>265.44</ele>
       <time>2014-11-07T17:30:01Z</time>
      </trkpt>
      <trkpt lat="48.376945" lon="6.286904">
       <ele>265.19</ele>
       <time>2014-11-07T17:30:11Z</time>
      </trkpt>
      <trkpt lat="48.376861" lon="6.286851">
       <ele>265.47</ele>
       <time>2014-11-07T17:30:13Z</time>
      </trkpt>
      <trkpt lat="48.376567" lon="6.286917">
       <ele>266.42</ele>
       <time>2014-11-07T17:30:19Z</time>
      </trkpt>
      <trkpt lat="48.376434" lon="6.286901">
       <ele>266.56</ele>
       <time>2014-11-07T17:30:22Z</time>
      </trkpt>
      <trkpt lat="48.376056" lon="6.286729">
       <ele>266.81</ele>
       <time>2014-11-07T17:30:30Z</time>
      </trkpt>
      <trkpt lat="48.375030" lon="6.286208">
       <ele>267.43</ele>
       <time>2014-11-07T17:30:53Z</time>
      </trkpt>
      <trkpt lat="48.374832" lon="6.286067">
       <ele>267.48</ele>
       <time>2014-11-07T17:30:57Z</time>
      </trkpt>
      <trkpt lat="48.374897" lon="6.285831">
       <ele>267.12</ele>
       <time>2014-11-07T17:31:01Z</time>
      </trkpt>
      <trkpt lat="48.374919" lon="6.285607">
       <ele>267.1</ele>
       <time>2014-11-07T17:31:04Z</time>
      </trkpt>
      <trkpt lat="48.376083" lon="6.274548">
       <ele>265.18</ele>
       <time>2014-11-07T17:33:38Z</time>
      </trkpt>
      <trkpt lat="48.376220" lon="6.273377">
       <ele>264.49</ele>
       <time>2014-11-07T17:33:54Z</time>
      </trkpt>
      <trkpt lat="48.376415" lon="6.272558">
       <ele>263.12</ele>
       <time>2014-11-07T17:34:06Z</time>
      </trkpt>
      <trkpt lat="48.376464" lon="6.272027">
       <ele>263.57</ele>
       <time>2014-11-07T17:34:14Z</time>
      </trkpt>
      <trkpt lat="48.376369" lon="6.271458">
       <ele>263.75</ele>
       <time>2014-11-07T17:34:22Z</time>
      </trkpt>
      <trkpt lat="48.379474" lon="6.268766">
       <ele>263.22</ele>
       <time>2014-11-07T17:35:36Z</time>
      </trkpt>
      <trkpt lat="48.385395" lon="6.263648">
       <ele>261.3</ele>
       <time>2014-11-07T17:37:58Z</time>
      </trkpt>
      <trkpt lat="48.390834" lon="6.258927">
       <ele>260.58</ele>
       <time>2014-11-07T17:40:08Z</time>
      </trkpt>
      <trkpt lat="48.391288" lon="6.258480">
       <ele>261.2</ele>
       <time>2014-11-07T17:40:19Z</time>
      </trkpt>
      <trkpt lat="48.392604" lon="6.256974">
       <ele>260.51</ele>
       <time>2014-11-07T17:40:53Z</time>
      </trkpt>
      <trkpt lat="48.393192" lon="6.256340">
       <ele>260.17</ele>
       <time>2014-11-07T17:41:08Z</time>
      </trkpt>
      <trkpt lat="48.393642" lon="6.256042">
       <ele>259.91</ele>
       <time>2014-11-07T17:41:18Z</time>
      </trkpt>
      <trkpt lat="48.393810" lon="6.255967">
       <ele>259.91</ele>
       <time>2014-11-07T17:41:22Z</time>
      </trkpt>
      <trkpt lat="48.393955" lon="6.255914">
       <ele>259.93</ele>
       <time>2014-11-07T17:41:25Z</time>
      </trkpt>
      <trkpt lat="48.394275" lon="6.255834">
       <ele>260</ele>
       <time>2014-11-07T17:41:32Z</time>
      </trkpt>
      <trkpt lat="48.394569" lon="6.255782">
       <ele>260.03</ele>
       <time>2014-11-07T17:41:38Z</time>
      </trkpt>
      <trkpt lat="48.399040" lon="6.255346">
       <ele>257.5</ele>
       <time>2014-11-07T17:43:11Z</time>
      </trkpt>
      <trkpt lat="48.402427" lon="6.255019">
       <ele>256.22</ele>
       <time>2014-11-07T17:44:21Z</time>
      </trkpt>
      <trkpt lat="48.402751" lon="6.255009">
       <ele>257.22</ele>
       <time>2014-11-07T17:44:28Z</time>
      </trkpt>
      <trkpt lat="48.403289" lon="6.255062">
       <ele>259.73</ele>
       <time>2014-11-07T17:44:39Z</time>
      </trkpt>
      <trkpt lat="48.403541" lon="6.255115">
       <ele>261.65</ele>
       <time>2014-11-07T17:44:45Z</time>
      </trkpt>
      <trkpt lat="48.404792" lon="6.255558">
       <ele>266.8</ele>
       <time>2014-11-07T17:45:11Z</time>
      </trkpt>
      <trkpt lat="48.404991" lon="6.255598">
       <ele>267.19</ele>
       <time>2014-11-07T17:45:15Z</time>
      </trkpt>
      <trkpt lat="48.405559" lon="6.255637">
       <ele>270.01</ele>
       <time>2014-11-07T17:45:27Z</time>
      </trkpt>
      <trkpt lat="48.406120" lon="6.255545">
       <ele>273</ele>
       <time>2014-11-07T17:45:39Z</time>
      </trkpt>
      <trkpt lat="48.406364" lon="6.255489">
       <ele>273.62</ele>
       <time>2014-11-07T17:45:44Z</time>
      </trkpt>
      <trkpt lat="48.408100" lon="6.254817">
       <ele>270.5</ele>
       <time>2014-11-07T17:46:21Z</time>
      </trkpt>
      <trkpt lat="48.408607" lon="6.254631">
       <ele>270.85</ele>
       <time>2014-11-07T17:46:32Z</time>
      </trkpt>
      <trkpt lat="48.408859" lon="6.254569">
       <ele>270.17</ele>
       <time>2014-11-07T17:46:37Z</time>
      </trkpt>
      <trkpt lat="48.409099" lon="6.254528">
       <ele>268.92</ele>
       <time>2014-11-07T17:46:42Z</time>
      </trkpt>
      <trkpt lat="48.409355" lon="6.254551">
       <ele>266.46</ele>
       <time>2014-11-07T17:46:48Z</time>
      </trkpt>
      <trkpt lat="48.409580" lon="6.254593">
       <ele>264.18</ele>
       <time>2014-11-07T17:46:52Z</time>
      </trkpt>
      <trkpt lat="48.409824" lon="6.254673">
       <ele>261.74</ele>
       <time>2014-11-07T17:46:57Z</time>
      </trkpt>
      <trkpt lat="48.409847" lon="6.254485">
       <ele>262.86</ele>
       <time>2014-11-07T17:47:00Z</time>
      </trkpt>
      <trkpt lat="48.409938" lon="6.254223">
       <ele>263.49</ele>
       <time>2014-11-07T17:47:04Z</time>
      </trkpt>
      <trkpt lat="48.411911" lon="6.253794">
       <ele>258.39</ele>
       <time>2014-11-07T17:47:45Z</time>
      </trkpt>
      <trkpt lat="48.413333" lon="6.253421">
       <ele>260.79</ele>
       <time>2014-11-07T17:48:15Z</time>
      </trkpt>
      <trkpt lat="48.413902" lon="6.253274">
       <ele>262.2</ele>
       <time>2014-11-07T17:48:27Z</time>
      </trkpt>
      <trkpt lat="48.414321" lon="6.253191">
       <ele>263.71</ele>
       <time>2014-11-07T17:48:36Z</time>
      </trkpt>
      <trkpt lat="48.414459" lon="6.253125">
       <ele>264.73</ele>
       <time>2014-11-07T17:48:39Z</time>
      </trkpt>
      <trkpt lat="48.414573" lon="6.252848">
       <ele>266.88</ele>
       <time>2014-11-07T17:48:44Z</time>
      </trkpt>
      <trkpt lat="48.415100" lon="6.251338">
       <ele>273.1</ele>
       <time>2014-11-07T17:49:07Z</time>
      </trkpt>
      <trkpt lat="48.415367" lon="6.250351">
       <ele>279.08</ele>
       <time>2014-11-07T17:49:22Z</time>
      </trkpt>
      <trkpt lat="48.415676" lon="6.248475">
       <ele>288.03</ele>
       <time>2014-11-07T17:49:48Z</time>
      </trkpt>
      <trkpt lat="48.415737" lon="6.247700">
       <ele>290.93</ele>
       <time>2014-11-07T17:49:59Z</time>
      </trkpt>
      <trkpt lat="48.415763" lon="6.247003">
       <ele>294.63</ele>
       <time>2014-11-07T17:50:09Z</time>
      </trkpt>
      <trkpt lat="48.415805" lon="6.246604">
       <ele>296.91</ele>
       <time>2014-11-07T17:50:14Z</time>
      </trkpt>
      <trkpt lat="48.415874" lon="6.246233">
       <ele>298.21</ele>
       <time>2014-11-07T17:50:20Z</time>
      </trkpt>
      <trkpt lat="48.416061" lon="6.245395">
       <ele>303.27</ele>
       <time>2014-11-07T17:50:32Z</time>
      </trkpt>
      <trkpt lat="48.416442" lon="6.244184">
       <ele>312.54</ele>
       <time>2014-11-07T17:50:50Z</time>
      </trkpt>
      <trkpt lat="48.416488" lon="6.243586">
       <ele>316.06</ele>
       <time>2014-11-07T17:50:58Z</time>
      </trkpt>
      <trkpt lat="48.416652" lon="6.242093">
       <ele>320.47</ele>
       <time>2014-11-07T17:51:19Z</time>
      </trkpt>
      <trkpt lat="48.416965" lon="6.241329">
       <ele>325.52</ele>
       <time>2014-11-07T17:51:32Z</time>
      </trkpt>
      <trkpt lat="48.417755" lon="6.240046">
       <ele>334.5</ele>
       <time>2014-11-07T17:51:56Z</time>
      </trkpt>
      <trkpt lat="48.418273" lon="6.238976">
       <ele>339.94</ele>
       <time>2014-11-07T17:52:14Z</time>
      </trkpt>
      <trkpt lat="48.418418" lon="6.238430">
       <ele>342.92</ele>
       <time>2014-11-07T17:52:22Z</time>
      </trkpt>
      <trkpt lat="48.418495" lon="6.237782">
       <ele>347.32</ele>
       <time>2014-11-07T17:52:31Z</time>
      </trkpt>
      <trkpt lat="48.418476" lon="6.237193">
       <ele>350</ele>
       <time>2014-11-07T17:52:39Z</time>
      </trkpt>
      <trkpt lat="48.418354" lon="6.236701">
       <ele>351.01</ele>
       <time>2014-11-07T17:52:46Z</time>
      </trkpt>
      <trkpt lat="48.417537" lon="6.233849">
       <ele>361.81</ele>
       <time>2014-11-07T17:53:29Z</time>
      </trkpt>
      <trkpt lat="48.417152" lon="6.232559">
       <ele>364.79</ele>
       <time>2014-11-07T17:53:49Z</time>
      </trkpt>
      <trkpt lat="48.416770" lon="6.231163">
       <ele>370.16</ele>
       <time>2014-11-07T17:54:09Z</time>
      </trkpt>
      <trkpt lat="48.416069" lon="6.228754">
       <ele>374.08</ele>
       <time>2014-11-07T17:54:46Z</time>
      </trkpt>
      <trkpt lat="48.416042" lon="6.228435">
       <ele>373.84</ele>
       <time>2014-11-07T17:54:50Z</time>
      </trkpt>
      <trkpt lat="48.416149" lon="6.228144">
       <ele>373.57</ele>
       <time>2014-11-07T17:54:55Z</time>
      </trkpt>
      <trkpt lat="48.418384" lon="6.225071">
       <ele>377.38</ele>
       <time>2014-11-07T17:55:57Z</time>
      </trkpt>
      <trkpt lat="48.418811" lon="6.224496">
       <ele>377.94</ele>
       <time>2014-11-07T17:56:09Z</time>
      </trkpt>
      <trkpt lat="48.419036" lon="6.224225">
       <ele>377.32</ele>
       <time>2014-11-07T17:56:15Z</time>
      </trkpt>
      <trkpt lat="48.419208" lon="6.224051">
       <ele>376.97</ele>
       <time>2014-11-07T17:56:19Z</time>
      </trkpt>
      <trkpt lat="48.419368" lon="6.223917">
       <ele>376.64</ele>
       <time>2014-11-07T17:56:23Z</time>
      </trkpt>
      <trkpt lat="48.419685" lon="6.223710">
       <ele>375.29</ele>
       <time>2014-11-07T17:56:30Z</time>
      </trkpt>
      <trkpt lat="48.419895" lon="6.223600">
       <ele>374.03</ele>
       <time>2014-11-07T17:56:35Z</time>
      </trkpt>
      <trkpt lat="48.420104" lon="6.223517">
       <ele>372.78</ele>
       <time>2014-11-07T17:56:40Z</time>
      </trkpt>
      <trkpt lat="48.420993" lon="6.223320">
       <ele>368.31</ele>
       <time>2014-11-07T17:56:58Z</time>
      </trkpt>
      <trkpt lat="48.421409" lon="6.223205">
       <ele>365.95</ele>
       <time>2014-11-07T17:57:07Z</time>
      </trkpt>
      <trkpt lat="48.421665" lon="6.223053">
       <ele>363.99</ele>
       <time>2014-11-07T17:57:13Z</time>
      </trkpt>
      <trkpt lat="48.421833" lon="6.222925">
       <ele>363.96</ele>
       <time>2014-11-07T17:57:17Z</time>
      </trkpt>
      <trkpt lat="48.422016" lon="6.222761">
       <ele>363.85</ele>
       <time>2014-11-07T17:57:21Z</time>
      </trkpt>
      <trkpt lat="48.422164" lon="6.222592">
       <ele>363.59</ele>
       <time>2014-11-07T17:57:25Z</time>
      </trkpt>
      <trkpt lat="48.422462" lon="6.222190">
       <ele>363.29</ele>
       <time>2014-11-07T17:57:33Z</time>
      </trkpt>
      <trkpt lat="48.422672" lon="6.221693">
       <ele>361.13</ele>
       <time>2014-11-07T17:57:41Z</time>
      </trkpt>
      <trkpt lat="48.422817" lon="6.221222">
       <ele>357.21</ele>
       <time>2014-11-07T17:57:48Z</time>
      </trkpt>
      <trkpt lat="48.422924" lon="6.220604">
       <ele>353.31</ele>
       <time>2014-11-07T17:57:57Z</time>
      </trkpt>
      <trkpt lat="48.422977" lon="6.220110">
       <ele>351.15</ele>
       <time>2014-11-07T17:58:04Z</time>
      </trkpt>
      <trkpt lat="48.423358" lon="6.216090">
       <ele>327.56</ele>
       <time>2014-11-07T17:59:00Z</time>
      </trkpt>
      <trkpt lat="48.423450" lon="6.215540">
       <ele>324.77</ele>
       <time>2014-11-07T17:59:08Z</time>
      </trkpt>
      <trkpt lat="48.423706" lon="6.214498">
       <ele>319.31</ele>
       <time>2014-11-07T17:59:23Z</time>
      </trkpt>
      <trkpt lat="48.423751" lon="6.214182">
       <ele>317.13</ele>
       <time>2014-11-07T17:59:27Z</time>
      </trkpt>
      <trkpt lat="48.423763" lon="6.213944">
       <ele>316.4</ele>
       <time>2014-11-07T17:59:31Z</time>
      </trkpt>
      <trkpt lat="48.423744" lon="6.213654">
       <ele>315.43</ele>
       <time>2014-11-07T17:59:35Z</time>
      </trkpt>
      <trkpt lat="48.423698" lon="6.213386">
       <ele>314.35</ele>
       <time>2014-11-07T17:59:39Z</time>
      </trkpt>
      <trkpt lat="48.423641" lon="6.213179">
       <ele>313.71</ele>
       <time>2014-11-07T17:59:42Z</time>
      </trkpt>
      <trkpt lat="48.423511" lon="6.212839">
       <ele>312.82</ele>
       <time>2014-11-07T17:59:47Z</time>
      </trkpt>
      <trkpt lat="48.423210" lon="6.212152">
       <ele>311.94</ele>
       <time>2014-11-07T17:59:58Z</time>
      </trkpt>
      <trkpt lat="48.423156" lon="6.211986">
       <ele>311.87</ele>
       <time>2014-11-07T18:00:01Z</time>
      </trkpt>
      <trkpt lat="48.423107" lon="6.211721">
       <ele>311.75</ele>
       <time>2014-11-07T18:00:05Z</time>
      </trkpt>
      <trkpt lat="48.423110" lon="6.211346">
       <ele>311.43</ele>
       <time>2014-11-07T18:00:10Z</time>
      </trkpt>
      <trkpt lat="48.424819" lon="6.203362">
       <ele>309.7</ele>
       <time>2014-11-07T18:02:05Z</time>
      </trkpt>
      <trkpt lat="48.427036" lon="6.193177">
       <ele>282.24</ele>
       <time>2014-11-07T18:04:33Z</time>
      </trkpt>
      <trkpt lat="48.427070" lon="6.192773">
       <ele>283.34</ele>
       <time>2014-11-07T18:04:38Z</time>
      </trkpt>
      <trkpt lat="48.427017" lon="6.191733">
       <ele>282.08</ele>
       <time>2014-11-07T18:04:53Z</time>
      </trkpt>
      <trkpt lat="48.427089" lon="6.190780">
       <ele>277.26</ele>
       <time>2014-11-07T18:05:06Z</time>
      </trkpt>
      <trkpt lat="48.427215" lon="6.190193">
       <ele>274.8</ele>
       <time>2014-11-07T18:05:14Z</time>
      </trkpt>
      <trkpt lat="48.427444" lon="6.189581">
       <ele>272.18</ele>
       <time>2014-11-07T18:05:24Z</time>
      </trkpt>
      <trkpt lat="48.429016" lon="6.186463">
       <ele>259.89</ele>
       <time>2014-11-07T18:06:18Z</time>
      </trkpt>
      <trkpt lat="48.429775" lon="6.184154">
       <ele>258.33</ele>
       <time>2014-11-07T18:06:53Z</time>
      </trkpt>
      <trkpt lat="48.429882" lon="6.183570">
       <ele>256.58</ele>
       <time>2014-11-07T18:07:02Z</time>
      </trkpt>
      <trkpt lat="48.430038" lon="6.182109">
       <ele>254.23</ele>
       <time>2014-11-07T18:07:22Z</time>
      </trkpt>
      <trkpt lat="48.430202" lon="6.180540">
       <ele>253.06</ele>
       <time>2014-11-07T18:07:44Z</time>
      </trkpt>
      <trkpt lat="48.430191" lon="6.180048">
       <ele>251.06</ele>
       <time>2014-11-07T18:07:51Z</time>
      </trkpt>
      <trkpt lat="48.429878" lon="6.177795">
       <ele>245.45</ele>
       <time>2014-11-07T18:08:22Z</time>
      </trkpt>
      <trkpt lat="48.429656" lon="6.176754">
       <ele>244.38</ele>
       <time>2014-11-07T18:08:37Z</time>
      </trkpt>
      <trkpt lat="48.429679" lon="6.176610">
       <ele>244.13</ele>
       <time>2014-11-07T18:08:39Z</time>
      </trkpt>
      <trkpt lat="48.429710" lon="6.176527">
       <ele>243.98</ele>
       <time>2014-11-07T18:08:41Z</time>
      </trkpt>
      <trkpt lat="48.429744" lon="6.176488">
       <ele>243.85</ele>
       <time>2014-11-07T18:08:42Z</time>
      </trkpt>
      <trkpt lat="48.430541" lon="6.176174">
       <ele>245.07</ele>
       <time>2014-11-07T18:08:59Z</time>
      </trkpt>
      <trkpt lat="48.431064" lon="6.175806">
       <ele>248.53</ele>
       <time>2014-11-07T18:09:11Z</time>
      </trkpt>
      <trkpt lat="48.432415" lon="6.173904">
       <ele>262.51</ele>
       <time>2014-11-07T18:09:49Z</time>
      </trkpt>
      <trkpt lat="48.433715" lon="6.171617">
       <ele>272.69</ele>
       <time>2014-11-07T18:10:30Z</time>
      </trkpt>
      <trkpt lat="48.443023" lon="6.155517">
       <ele>308.64</ele>
       <time>2014-11-07T18:15:24Z</time>
      </trkpt>
      <trkpt lat="48.448440" lon="6.145850">
       <ele>316.97</ele>
       <time>2014-11-07T18:18:18Z</time>
      </trkpt>
      <trkpt lat="48.448951" lon="6.144583">
       <ele>312.77</ele>
       <time>2014-11-07T18:18:39Z</time>
      </trkpt>
      <trkpt lat="48.454212" lon="6.130259">
       <ele>312.13</ele>
       <time>2014-11-07T18:22:24Z</time>
      </trkpt>
      <trkpt lat="48.454536" lon="6.129586">
       <ele>313.38</ele>
       <time>2014-11-07T18:22:35Z</time>
      </trkpt>
      <trkpt lat="48.454837" lon="6.129284">
       <ele>314.47</ele>
       <time>2014-11-07T18:22:43Z</time>
      </trkpt>
      <trkpt lat="48.455951" lon="6.128470">
       <ele>316.28</ele>
       <time>2014-11-07T18:23:08Z</time>
      </trkpt>
      <trkpt lat="48.456855" lon="6.127961">
       <ele>319.82</ele>
       <time>2014-11-07T18:23:28Z</time>
      </trkpt>
      <trkpt lat="48.456912" lon="6.127842">
       <ele>320.31</ele>
       <time>2014-11-07T18:23:30Z</time>
      </trkpt>
      <trkpt lat="48.457054" lon="6.127624">
       <ele>321.16</ele>
       <time>2014-11-07T18:23:35Z</time>
      </trkpt>
      <trkpt lat="48.457195" lon="6.127486">
       <ele>321.64</ele>
       <time>2014-11-07T18:23:38Z</time>
      </trkpt>
      <trkpt lat="48.458049" lon="6.126992">
       <ele>322.8</ele>
       <time>2014-11-07T18:23:57Z</time>
      </trkpt>
      <trkpt lat="48.466342" lon="6.120869">
       <ele>320.61</ele>
       <time>2014-11-07T18:27:09Z</time>
      </trkpt>
      <trkpt lat="48.466831" lon="6.120287">
       <ele>319.42</ele>
       <time>2014-11-07T18:27:22Z</time>
      </trkpt>
      <trkpt lat="48.469276" lon="6.116910">
       <ele>312.1</ele>
       <time>2014-11-07T18:28:30Z</time>
      </trkpt>
      <trkpt lat="48.471618" lon="6.113789">
       <ele>310.48</ele>
       <time>2014-11-07T18:29:35Z</time>
      </trkpt>
      <trkpt lat="48.471828" lon="6.113439">
       <ele>310.63</ele>
       <time>2014-11-07T18:29:42Z</time>
      </trkpt>
      <trkpt lat="48.472145" lon="6.112771">
       <ele>310.53</ele>
       <time>2014-11-07T18:29:53Z</time>
      </trkpt>
      <trkpt lat="48.472282" lon="6.112299">
       <ele>310.74</ele>
       <time>2014-11-07T18:30:00Z</time>
      </trkpt>
      <trkpt lat="48.472442" lon="6.111442">
       <ele>310.95</ele>
       <time>2014-11-07T18:30:12Z</time>
      </trkpt>
      <trkpt lat="48.473197" lon="6.103394">
       <ele>306.46</ele>
       <time>2014-11-07T18:32:04Z</time>
      </trkpt>
      <trkpt lat="48.473304" lon="6.102313">
       <ele>304.56</ele>
       <time>2014-11-07T18:32:19Z</time>
      </trkpt>
      <trkpt lat="48.473365" lon="6.101912">
       <ele>303.64</ele>
       <time>2014-11-07T18:32:25Z</time>
      </trkpt>
      <trkpt lat="48.473575" lon="6.101064">
       <ele>301.63</ele>
       <time>2014-11-07T18:32:37Z</time>
      </trkpt>
      <trkpt lat="48.473861" lon="6.100226">
       <ele>299.28</ele>
       <time>2014-11-07T18:32:50Z</time>
      </trkpt>
      <trkpt lat="48.474231" lon="6.099469">
       <ele>297.06</ele>
       <time>2014-11-07T18:33:03Z</time>
      </trkpt>
      <trkpt lat="48.474529" lon="6.099030">
       <ele>295.25</ele>
       <time>2014-11-07T18:33:12Z</time>
      </trkpt>
      <trkpt lat="48.474830" lon="6.098651">
       <ele>293.4</ele>
       <time>2014-11-07T18:33:20Z</time>
      </trkpt>
      <trkpt lat="48.475208" lon="6.098288">
       <ele>292.13</ele>
       <time>2014-11-07T18:33:29Z</time>
      </trkpt>
      <trkpt lat="48.478919" lon="6.095221">
       <ele>279.39</ele>
       <time>2014-11-07T18:34:57Z</time>
      </trkpt>
      <trkpt lat="48.480033" lon="6.094554">
       <ele>277.71</ele>
       <time>2014-11-07T18:35:22Z</time>
      </trkpt>
      <trkpt lat="48.481189" lon="6.094136">
       <ele>275.8</ele>
       <time>2014-11-07T18:35:46Z</time>
      </trkpt>
      <trkpt lat="48.481929" lon="6.093770">
       <ele>273.73</ele>
       <time>2014-11-07T18:36:02Z</time>
      </trkpt>
      <trkpt lat="48.482189" lon="6.093673">
       <ele>272.72</ele>
       <time>2014-11-07T18:36:08Z</time>
      </trkpt>
      <trkpt lat="48.482498" lon="6.093627">
       <ele>272.47</ele>
       <time>2014-11-07T18:36:14Z</time>
      </trkpt>
      <trkpt lat="48.482688" lon="6.093635">
       <ele>271.42</ele>
       <time>2014-11-07T18:36:18Z</time>
      </trkpt>
      <trkpt lat="48.483024" lon="6.093677">
       <ele>269.89</ele>
       <time>2014-11-07T18:36:25Z</time>
      </trkpt>
      <trkpt lat="48.483551" lon="6.093750">
       <ele>268.48</ele>
       <time>2014-11-07T18:36:36Z</time>
      </trkpt>
      <trkpt lat="48.483787" lon="6.093801">
       <ele>268.52</ele>
       <time>2014-11-07T18:36:41Z</time>
      </trkpt>
      <trkpt lat="48.484260" lon="6.094016">
       <ele>269.23</ele>
       <time>2014-11-07T18:36:51Z</time>
      </trkpt>
      <trkpt lat="48.484752" lon="6.094301">
       <ele>267.15</ele>
       <time>2014-11-07T18:37:02Z</time>
      </trkpt>
      <trkpt lat="48.484935" lon="6.094359">
       <ele>266.14</ele>
       <time>2014-11-07T18:37:06Z</time>
      </trkpt>
      <trkpt lat="48.485099" lon="6.094378">
       <ele>265.59</ele>
       <time>2014-11-07T18:37:10Z</time>
      </trkpt>
      <trkpt lat="48.485370" lon="6.094346">
       <ele>264.5</ele>
       <time>2014-11-07T18:37:15Z</time>
      </trkpt>
      <trkpt lat="48.485675" lon="6.094229">
       <ele>262.13</ele>
       <time>2014-11-07T18:37:22Z</time>
      </trkpt>
      <trkpt lat="48.488162" lon="6.092803">
       <ele>251.77</ele>
       <time>2014-11-07T18:38:17Z</time>
      </trkpt>
      <trkpt lat="48.488208" lon="6.092757">
       <ele>251.61</ele>
       <time>2014-11-07T18:38:18Z</time>
      </trkpt>
      <trkpt lat="48.488243" lon="6.092685">
       <ele>251.44</ele>
       <time>2014-11-07T18:38:19Z</time>
      </trkpt>
      <trkpt lat="48.488262" lon="6.092599">
       <ele>251.29</ele>
       <time>2014-11-07T18:38:21Z</time>
      </trkpt>
      <trkpt lat="48.488269" lon="6.092414">
       <ele>251.18</ele>
       <time>2014-11-07T18:38:23Z</time>
      </trkpt>
      <trkpt lat="48.488246" lon="6.092285">
       <ele>251.29</ele>
       <time>2014-11-07T18:38:25Z</time>
      </trkpt>
      <trkpt lat="48.488166" lon="6.092092">
       <ele>251.69</ele>
       <time>2014-11-07T18:38:28Z</time>
      </trkpt>
      <trkpt lat="48.487976" lon="6.091461">
       <ele>253.25</ele>
       <time>2014-11-07T18:38:38Z</time>
      </trkpt>
      <trkpt lat="48.487724" lon="6.090462">
       <ele>254.61</ele>
       <time>2014-11-07T18:38:52Z</time>
      </trkpt>
      <trkpt lat="48.487621" lon="6.090144">
       <ele>254.59</ele>
       <time>2014-11-07T18:38:57Z</time>
      </trkpt>
      <trkpt lat="48.487358" lon="6.089660">
       <ele>255.77</ele>
       <time>2014-11-07T18:39:06Z</time>
      </trkpt>
      <trkpt lat="48.487354" lon="6.089478">
       <ele>255.03</ele>
       <time>2014-11-07T18:39:08Z</time>
      </trkpt>
      <trkpt lat="48.487514" lon="6.089048">
       <ele>252.69</ele>
       <time>2014-11-07T18:39:15Z</time>
      </trkpt>
      <trkpt lat="48.487533" lon="6.088912">
       <ele>252.36</ele>
       <time>2014-11-07T18:39:17Z</time>
      </trkpt>
      <trkpt lat="48.487354" lon="6.088036">
       <ele>251.41</ele>
       <time>2014-11-07T18:39:30Z</time>
      </trkpt>
      <trkpt lat="48.487243" lon="6.087791">
       <ele>251.82</ele>
       <time>2014-11-07T18:39:34Z</time>
      </trkpt>
      <trkpt lat="48.487007" lon="6.087349">
       <ele>253.03</ele>
       <time>2014-11-07T18:39:41Z</time>
      </trkpt>
      <trkpt lat="48.486892" lon="6.087230">
       <ele>253.6</ele>
       <time>2014-11-07T18:39:44Z</time>
      </trkpt>
      <trkpt lat="48.486812" lon="6.087112">
       <ele>254.02</ele>
       <time>2014-11-07T18:39:47Z</time>
      </trkpt>
      <trkpt lat="48.486736" lon="6.086959">
       <ele>254.45</ele>
       <time>2014-11-07T18:39:49Z</time>
      </trkpt>
      <trkpt lat="48.486537" lon="6.086299">
       <ele>254.75</ele>
       <time>2014-11-07T18:39:59Z</time>
      </trkpt>
      <trkpt lat="48.486576" lon="6.086215">
       <ele>254.44</ele>
       <time>2014-11-07T18:40:01Z</time>
      </trkpt>
      <trkpt lat="48.486896" lon="6.085762">
       <ele>254.17</ele>
       <time>2014-11-07T18:40:10Z</time>
      </trkpt>
      <trkpt lat="48.487361" lon="6.084848">
       <ele>256.81</ele>
       <time>2014-11-07T18:40:26Z</time>
      </trkpt>
      <trkpt lat="48.487663" lon="6.084348">
       <ele>261.2</ele>
       <time>2014-11-07T18:40:35Z</time>
      </trkpt>
      <trkpt lat="48.487701" lon="6.084256">
       <ele>261.98</ele>
       <time>2014-11-07T18:40:36Z</time>
      </trkpt>
      <trkpt lat="48.487724" lon="6.084066">
       <ele>262.89</ele>
       <time>2014-11-07T18:40:39Z</time>
      </trkpt>
      <trkpt lat="48.487670" lon="6.083190">
       <ele>265.35</ele>
       <time>2014-11-07T18:40:51Z</time>
      </trkpt>
      <trkpt lat="48.487701" lon="6.082847">
       <ele>266.99</ele>
       <time>2014-11-07T18:40:56Z</time>
      </trkpt>
      <trkpt lat="48.487796" lon="6.082202">
       <ele>270.78</ele>
       <time>2014-11-07T18:41:05Z</time>
      </trkpt>
      <trkpt lat="48.487880" lon="6.081782">
       <ele>273.28</ele>
       <time>2014-11-07T18:41:11Z</time>
      </trkpt>
      <trkpt lat="48.491130" lon="6.073272">
       <ele>277.86</ele>
       <time>2014-11-07T18:43:26Z</time>
      </trkpt>
      <trkpt lat="48.491382" lon="6.072462">
       <ele>281.29</ele>
       <time>2014-11-07T18:43:38Z</time>
      </trkpt>
      <trkpt lat="48.491447" lon="6.072052">
       <ele>282.04</ele>
       <time>2014-11-07T18:43:44Z</time>
      </trkpt>
      <trkpt lat="48.491744" lon="6.067789">
       <ele>276.53</ele>
       <time>2014-11-07T18:44:43Z</time>
      </trkpt>
      <trkpt lat="48.493228" lon="6.046387">
       <ele>284.13</ele>
       <time>2014-11-07T18:49:39Z</time>
      </trkpt>
      <trkpt lat="48.495113" lon="6.017206">
       <ele>276.36</ele>
       <time>2014-11-07T18:56:21Z</time>
      </trkpt>
      <trkpt lat="48.495166" lon="6.016828">
       <ele>276.44</ele>
       <time>2014-11-07T18:56:27Z</time>
      </trkpt>
      <trkpt lat="48.495220" lon="6.016623">
       <ele>276.53</ele>
       <time>2014-11-07T18:56:30Z</time>
      </trkpt>
      <trkpt lat="48.495410" lon="6.016109">
       <ele>276.99</ele>
       <time>2014-11-07T18:56:38Z</time>
      </trkpt>
      <trkpt lat="48.495609" lon="6.015782">
       <ele>277.52</ele>
       <time>2014-11-07T18:56:44Z</time>
      </trkpt>
      <trkpt lat="48.495845" lon="6.015466">
       <ele>278.45</ele>
       <time>2014-11-07T18:56:51Z</time>
      </trkpt>
      <trkpt lat="48.496379" lon="6.014831">
       <ele>279.52</ele>
       <time>2014-11-07T18:57:05Z</time>
      </trkpt>
      <trkpt lat="48.497062" lon="6.014060">
       <ele>280.94</ele>
       <time>2014-11-07T18:57:22Z</time>
      </trkpt>
      <trkpt lat="48.497474" lon="6.013453">
       <ele>282.74</ele>
       <time>2014-11-07T18:57:34Z</time>
      </trkpt>
      <trkpt lat="48.497825" lon="6.013010">
       <ele>283.7</ele>
       <time>2014-11-07T18:57:44Z</time>
      </trkpt>
      <trkpt lat="48.498085" lon="6.011524">
       <ele>285.45</ele>
       <time>2014-11-07T18:58:05Z</time>
      </trkpt>
      <trkpt lat="48.498218" lon="6.010140">
       <ele>288.19</ele>
       <time>2014-11-07T18:58:24Z</time>
      </trkpt>
      <trkpt lat="48.498203" lon="6.009900">
       <ele>287.9</ele>
       <time>2014-11-07T18:58:27Z</time>
      </trkpt>
      <trkpt lat="48.498008" lon="6.009438">
       <ele>285.55</ele>
       <time>2014-11-07T18:58:35Z</time>
      </trkpt>
      <trkpt lat="48.497936" lon="6.009180">
       <ele>284.6</ele>
       <time>2014-11-07T18:58:39Z</time>
      </trkpt>
      <trkpt lat="48.497909" lon="6.008833">
       <ele>284.07</ele>
       <time>2014-11-07T18:58:44Z</time>
      </trkpt>
      <trkpt lat="48.498004" lon="6.006764">
       <ele>283.22</ele>
       <time>2014-11-07T18:59:12Z</time>
      </trkpt>
      <trkpt lat="48.498523" lon="6.001482">
       <ele>285.5</ele>
       <time>2014-11-07T19:00:25Z</time>
      </trkpt>
      <trkpt lat="48.498714" lon="6.000419">
       <ele>287.58</ele>
       <time>2014-11-07T19:00:41Z</time>
      </trkpt>
      <trkpt lat="48.498973" lon="5.999368">
       <ele>286.87</ele>
       <time>2014-11-07T19:00:56Z</time>
      </trkpt>
      <trkpt lat="48.499183" lon="5.998702">
       <ele>287.3</ele>
       <time>2014-11-07T19:01:06Z</time>
      </trkpt>
      <trkpt lat="48.499416" lon="5.998077">
       <ele>289.95</ele>
       <time>2014-11-07T19:01:16Z</time>
      </trkpt>
      <trkpt lat="48.499668" lon="5.997494">
       <ele>289.98</ele>
       <time>2014-11-07T19:01:26Z</time>
      </trkpt>
      <trkpt lat="48.499942" lon="5.996922">
       <ele>288.28</ele>
       <time>2014-11-07T19:01:35Z</time>
      </trkpt>
      <trkpt lat="48.501701" lon="5.993564">
       <ele>287.67</ele>
       <time>2014-11-07T19:02:34Z</time>
      </trkpt>
      <trkpt lat="48.502132" lon="5.992853">
       <ele>288.71</ele>
       <time>2014-11-07T19:02:47Z</time>
      </trkpt>
      <trkpt lat="48.502746" lon="5.991969">
       <ele>291.36</ele>
       <time>2014-11-07T19:03:05Z</time>
      </trkpt>
      <trkpt lat="48.503406" lon="5.991167">
       <ele>291.58</ele>
       <time>2014-11-07T19:03:22Z</time>
      </trkpt>
      <trkpt lat="48.504104" lon="5.990468">
       <ele>291.97</ele>
       <time>2014-11-07T19:03:40Z</time>
      </trkpt>
      <trkpt lat="48.505466" lon="5.989344">
       <ele>293.95</ele>
       <time>2014-11-07T19:04:12Z</time>
      </trkpt>
      <trkpt lat="48.507041" lon="5.988182">
       <ele>294.72</ele>
       <time>2014-11-07T19:04:48Z</time>
      </trkpt>
      <trkpt lat="48.507202" lon="5.988087">
       <ele>294.85</ele>
       <time>2014-11-07T19:04:52Z</time>
      </trkpt>
      <trkpt lat="48.507476" lon="5.987964">
       <ele>295.16</ele>
       <time>2014-11-07T19:04:58Z</time>
      </trkpt>
      <trkpt lat="48.508861" lon="5.987414">
       <ele>295.68</ele>
       <time>2014-11-07T19:05:28Z</time>
      </trkpt>
      <trkpt lat="48.510250" lon="5.986814">
       <ele>296.88</ele>
       <time>2014-11-07T19:05:58Z</time>
      </trkpt>
      <trkpt lat="48.511207" lon="5.986207">
       <ele>297.24</ele>
       <time>2014-11-07T19:06:19Z</time>
      </trkpt>
      <trkpt lat="48.511604" lon="5.985879">
       <ele>297.88</ele>
       <time>2014-11-07T19:06:28Z</time>
      </trkpt>
      <trkpt lat="48.512168" lon="5.985289">
       <ele>297.85</ele>
       <time>2014-11-07T19:06:43Z</time>
      </trkpt>
      <trkpt lat="48.513805" lon="5.983775">
       <ele>298.13</ele>
       <time>2014-11-07T19:07:22Z</time>
      </trkpt>
      <trkpt lat="48.514171" lon="5.983242">
       <ele>298.91</ele>
       <time>2014-11-07T19:07:33Z</time>
      </trkpt>
      <trkpt lat="48.514850" lon="5.982061">
       <ele>301.63</ele>
       <time>2014-11-07T19:07:54Z</time>
      </trkpt>
      <trkpt lat="48.514938" lon="5.981941">
       <ele>301.69</ele>
       <time>2014-11-07T19:07:57Z</time>
      </trkpt>
      <trkpt lat="48.515197" lon="5.981659">
       <ele>301.7</ele>
       <time>2014-11-07T19:08:04Z</time>
      </trkpt>
      <trkpt lat="48.515365" lon="5.981526">
       <ele>302</ele>
       <time>2014-11-07T19:08:07Z</time>
      </trkpt>
      <trkpt lat="48.515533" lon="5.981423">
       <ele>302.25</ele>
       <time>2014-11-07T19:08:11Z</time>
      </trkpt>
      <trkpt lat="48.515911" lon="5.981256">
       <ele>302.75</ele>
       <time>2014-11-07T19:08:19Z</time>
      </trkpt>
      <trkpt lat="48.516433" lon="5.980978">
       <ele>303.56</ele>
       <time>2014-11-07T19:08:31Z</time>
      </trkpt>
      <trkpt lat="48.517494" lon="5.980141">
       <ele>305.32</ele>
       <time>2014-11-07T19:08:56Z</time>
      </trkpt>
      <trkpt lat="48.517719" lon="5.979921">
       <ele>306.65</ele>
       <time>2014-11-07T19:09:01Z</time>
      </trkpt>
      <trkpt lat="48.518836" lon="5.978446">
       <ele>311.38</ele>
       <time>2014-11-07T19:09:32Z</time>
      </trkpt>
      <trkpt lat="48.519046" lon="5.978146">
       <ele>312.4</ele>
       <time>2014-11-07T19:09:38Z</time>
      </trkpt>
      <trkpt lat="48.520278" lon="5.975698">
       <ele>313.29</ele>
       <time>2014-11-07T19:10:20Z</time>
      </trkpt>
      <trkpt lat="48.520446" lon="5.975433">
       <ele>313.46</ele>
       <time>2014-11-07T19:10:25Z</time>
      </trkpt>
      <trkpt lat="48.520896" lon="5.974905">
       <ele>313.97</ele>
       <time>2014-11-07T19:10:37Z</time>
      </trkpt>
      <trkpt lat="48.521152" lon="5.974671">
       <ele>314.5</ele>
       <time>2014-11-07T19:10:43Z</time>
      </trkpt>
      <trkpt lat="48.522140" lon="5.973843">
       <ele>317.29</ele>
       <time>2014-11-07T19:11:07Z</time>
      </trkpt>
      <trkpt lat="48.522438" lon="5.973645">
       <ele>318.13</ele>
       <time>2014-11-07T19:11:13Z</time>
      </trkpt>
      <trkpt lat="48.522594" lon="5.973580">
       <ele>318.94</ele>
       <time>2014-11-07T19:11:17Z</time>
      </trkpt>
      <trkpt lat="48.522819" lon="5.973527">
       <ele>320.52</ele>
       <time>2014-11-07T19:11:22Z</time>
      </trkpt>
      <trkpt lat="48.523078" lon="5.973502">
       <ele>322.53</ele>
       <time>2014-11-07T19:11:27Z</time>
      </trkpt>
      <trkpt lat="48.523441" lon="5.973495">
       <ele>325.28</ele>
       <time>2014-11-07T19:11:34Z</time>
      </trkpt>
      <trkpt lat="48.524368" lon="5.973646">
       <ele>331.6</ele>
       <time>2014-11-07T19:11:54Z</time>
      </trkpt>
      <trkpt lat="48.524616" lon="5.973738">
       <ele>333.05</ele>
       <time>2014-11-07T19:11:59Z</time>
      </trkpt>
      <trkpt lat="48.525051" lon="5.973861">
       <ele>335.35</ele>
       <time>2014-11-07T19:12:08Z</time>
      </trkpt>
      <trkpt lat="48.525234" lon="5.973865">
       <ele>336.03</ele>
       <time>2014-11-07T19:12:12Z</time>
      </trkpt>
      <trkpt lat="48.525455" lon="5.973826">
       <ele>336.6</ele>
       <time>2014-11-07T19:12:17Z</time>
      </trkpt>
      <trkpt lat="48.525684" lon="5.973734">
       <ele>336.87</ele>
       <time>2014-11-07T19:12:22Z</time>
      </trkpt>
      <trkpt lat="48.525959" lon="5.973501">
       <ele>336.55</ele>
       <time>2014-11-07T19:12:28Z</time>
      </trkpt>
      <trkpt lat="48.526344" lon="5.973106">
       <ele>336.26</ele>
       <time>2014-11-07T19:12:38Z</time>
      </trkpt>
      <trkpt lat="48.526596" lon="5.972880">
       <ele>336.44</ele>
       <time>2014-11-07T19:12:44Z</time>
      </trkpt>
      <trkpt lat="48.527721" lon="5.972002">
       <ele>334.32</ele>
       <time>2014-11-07T19:13:10Z</time>
      </trkpt>
      <trkpt lat="48.527996" lon="5.972321">
       <ele>337.96</ele>
       <time>2014-11-07T19:13:17Z</time>
      </trkpt>
      <trkpt lat="48.528240" lon="5.972548">
       <ele>340.84</ele>
       <time>2014-11-07T19:13:23Z</time>
      </trkpt>
      <trkpt lat="48.528335" lon="5.972609">
       <ele>341.66</ele>
       <time>2014-11-07T19:13:25Z</time>
      </trkpt>
      <trkpt lat="48.528423" lon="5.972630">
       <ele>341.94</ele>
       <time>2014-11-07T19:13:27Z</time>
      </trkpt>
      <trkpt lat="48.528518" lon="5.972636">
       <ele>342.15</ele>
       <time>2014-11-07T19:13:29Z</time>
      </trkpt>
      <trkpt lat="48.530170" lon="5.972475">
       <ele>347.16</ele>
       <time>2014-11-07T19:14:04Z</time>
      </trkpt>
      <trkpt lat="48.530307" lon="5.972438">
       <ele>347.09</ele>
       <time>2014-11-07T19:14:06Z</time>
      </trkpt>
      <trkpt lat="48.531757" lon="5.971882">
       <ele>344.54</ele>
       <time>2014-11-07T19:14:37Z</time>
      </trkpt>
      <trkpt lat="48.546459" lon="5.967451">
       <ele>311.54</ele>
       <time>2014-11-07T19:19:48Z</time>
      </trkpt>
      <trkpt lat="48.548786" lon="5.966763">
       <ele>314.87</ele>
       <time>2014-11-07T19:20:37Z</time>
      </trkpt>
      <trkpt lat="48.549320" lon="5.966711">
       <ele>316.97</ele>
       <time>2014-11-07T19:20:49Z</time>
      </trkpt>
      <trkpt lat="48.549472" lon="5.966681">
       <ele>316.62</ele>
       <time>2014-11-07T19:20:52Z</time>
      </trkpt>
      <trkpt lat="48.549839" lon="5.966536">
       <ele>315.4</ele>
       <time>2014-11-07T19:21:00Z</time>
      </trkpt>
      <trkpt lat="48.550109" lon="5.966504">
       <ele>314.92</ele>
       <time>2014-11-07T19:21:05Z</time>
      </trkpt>
      <trkpt lat="48.550617" lon="5.966483">
       <ele>313.36</ele>
       <time>2014-11-07T19:21:16Z</time>
      </trkpt>
      <trkpt lat="48.553741" lon="5.966662">
       <ele>305.62</ele>
       <time>2014-11-07T19:22:21Z</time>
      </trkpt>
      <trkpt lat="48.553890" lon="5.966642">
       <ele>304.55</ele>
       <time>2014-11-07T19:22:24Z</time>
      </trkpt>
      <trkpt lat="48.553997" lon="5.966607">
       <ele>303.95</ele>
       <time>2014-11-07T19:22:26Z</time>
      </trkpt>
      <trkpt lat="48.554096" lon="5.966529">
       <ele>303.78</ele>
       <time>2014-11-07T19:22:28Z</time>
      </trkpt>
      <trkpt lat="48.554195" lon="5.966419">
       <ele>304.13</ele>
       <time>2014-11-07T19:22:31Z</time>
      </trkpt>
      <trkpt lat="48.555381" lon="5.964673">
       <ele>306.1</ele>
       <time>2014-11-07T19:23:05Z</time>
      </trkpt>
      <trkpt lat="48.555557" lon="5.964478">
       <ele>304.99</ele>
       <time>2014-11-07T19:23:10Z</time>
      </trkpt>
      <trkpt lat="48.555782" lon="5.964315">
       <ele>303.71</ele>
       <time>2014-11-07T19:23:15Z</time>
      </trkpt>
      <trkpt lat="48.555965" lon="5.964219">
       <ele>302.7</ele>
       <time>2014-11-07T19:23:19Z</time>
      </trkpt>
      <trkpt lat="48.556221" lon="5.964131">
       <ele>302.22</ele>
       <time>2014-11-07T19:23:24Z</time>
      </trkpt>
      <trkpt lat="48.556400" lon="5.964097">
       <ele>302.39</ele>
       <time>2014-11-07T19:23:28Z</time>
      </trkpt>
      <trkpt lat="48.556743" lon="5.964075">
       <ele>302.37</ele>
       <time>2014-11-07T19:23:35Z</time>
      </trkpt>
      <trkpt lat="48.561378" lon="5.964105">
       <ele>301.19</ele>
       <time>2014-11-07T19:25:11Z</time>
      </trkpt>
      <trkpt lat="48.561843" lon="5.964056">
       <ele>301.33</ele>
       <time>2014-11-07T19:25:21Z</time>
      </trkpt>
      <trkpt lat="48.562107" lon="5.963975">
       <ele>301.53</ele>
       <time>2014-11-07T19:25:27Z</time>
      </trkpt>
      <trkpt lat="48.562198" lon="5.963922">
       <ele>301.4</ele>
       <time>2014-11-07T19:25:29Z</time>
      </trkpt>
      <trkpt lat="48.562343" lon="5.963786">
       <ele>300.63</ele>
       <time>2014-11-07T19:25:32Z</time>
      </trkpt>
      <trkpt lat="48.562431" lon="5.963665">
       <ele>299.57</ele>
       <time>2014-11-07T19:25:35Z</time>
      </trkpt>
      <trkpt lat="48.563461" lon="5.962009">
       <ele>298.67</ele>
       <time>2014-11-07T19:26:06Z</time>
      </trkpt>
      <trkpt lat="48.563716" lon="5.961781">
       <ele>297.85</ele>
       <time>2014-11-07T19:26:12Z</time>
      </trkpt>
      <trkpt lat="48.563941" lon="5.961689">
       <ele>297.22</ele>
       <time>2014-11-07T19:26:17Z</time>
      </trkpt>
      <trkpt lat="48.564189" lon="5.961698">
       <ele>297.35</ele>
       <time>2014-11-07T19:26:22Z</time>
      </trkpt>
      <trkpt lat="48.564380" lon="5.961760">
       <ele>297.81</ele>
       <time>2014-11-07T19:26:26Z</time>
      </trkpt>
      <trkpt lat="48.565441" lon="5.962224">
       <ele>299.93</ele>
       <time>2014-11-07T19:26:49Z</time>
      </trkpt>
      <trkpt lat="48.566593" lon="5.962676">
       <ele>296.61</ele>
       <time>2014-11-07T19:27:13Z</time>
      </trkpt>
      <trkpt lat="48.567504" lon="5.963034">
       <ele>296.99</ele>
       <time>2014-11-07T19:27:33Z</time>
      </trkpt>
      <trkpt lat="48.567737" lon="5.963101">
       <ele>296.43</ele>
       <time>2014-11-07T19:27:38Z</time>
      </trkpt>
      <trkpt lat="48.567977" lon="5.963126">
       <ele>295.85</ele>
       <time>2014-11-07T19:27:43Z</time>
      </trkpt>
      <trkpt lat="48.568145" lon="5.963088">
       <ele>295.45</ele>
       <time>2014-11-07T19:27:46Z</time>
      </trkpt>
      <trkpt lat="48.568359" lon="5.963008">
       <ele>294.95</ele>
       <time>2014-11-07T19:27:51Z</time>
      </trkpt>
      <trkpt lat="48.570037" lon="5.962143">
       <ele>289.47</ele>
       <time>2014-11-07T19:28:28Z</time>
      </trkpt>
      <trkpt lat="48.571411" lon="5.961468">
       <ele>289.9</ele>
       <time>2014-11-07T19:28:58Z</time>
      </trkpt>
      <trkpt lat="48.571632" lon="5.961306">
       <ele>290.49</ele>
       <time>2014-11-07T19:29:03Z</time>
      </trkpt>
      <trkpt lat="48.571773" lon="5.961125">
       <ele>290.31</ele>
       <time>2014-11-07T19:29:07Z</time>
      </trkpt>
      <trkpt lat="48.572418" lon="5.959813">
       <ele>295.07</ele>
       <time>2014-11-07T19:29:29Z</time>
      </trkpt>
      <trkpt lat="48.572570" lon="5.959642">
       <ele>297.59</ele>
       <time>2014-11-07T19:29:33Z</time>
      </trkpt>
      <trkpt lat="48.572742" lon="5.959568">
       <ele>300.61</ele>
       <time>2014-11-07T19:29:37Z</time>
      </trkpt>
      <trkpt lat="48.572856" lon="5.959548">
       <ele>302.43</ele>
       <time>2014-11-07T19:29:39Z</time>
      </trkpt>
      <trkpt lat="48.572990" lon="5.959568">
       <ele>304.19</ele>
       <time>2014-11-07T19:29:42Z</time>
      </trkpt>
      <trkpt lat="48.573101" lon="5.959640">
       <ele>305.15</ele>
       <time>2014-11-07T19:29:44Z</time>
      </trkpt>
      <trkpt lat="48.573299" lon="5.959901">
       <ele>305.49</ele>
       <time>2014-11-07T19:29:50Z</time>
      </trkpt>
      <trkpt lat="48.576095" lon="5.965137">
       <ele>320.31</ele>
       <time>2014-11-07T19:31:22Z</time>
      </trkpt>
      <trkpt lat="48.576610" lon="5.966042">
       <ele>320.05</ele>
       <time>2014-11-07T19:31:39Z</time>
      </trkpt>
      <trkpt lat="48.576927" lon="5.966456">
       <ele>320.16</ele>
       <time>2014-11-07T19:31:47Z</time>
      </trkpt>
      <trkpt lat="48.577278" lon="5.966814">
       <ele>321.32</ele>
       <time>2014-11-07T19:31:56Z</time>
      </trkpt>
      <trkpt lat="48.577987" lon="5.967308">
       <ele>323.35</ele>
       <time>2014-11-07T19:32:12Z</time>
      </trkpt>
      <trkpt lat="48.578712" lon="5.967559">
       <ele>324.21</ele>
       <time>2014-11-07T19:32:28Z</time>
      </trkpt>
      <trkpt lat="48.592899" lon="5.971048">
       <ele>315.57</ele>
       <time>2014-11-07T19:37:26Z</time>
      </trkpt>
      <trkpt lat="48.593555" lon="5.971117">
       <ele>317.37</ele>
       <time>2014-11-07T19:37:39Z</time>
      </trkpt>
      <trkpt lat="48.594009" lon="5.971065">
       <ele>318.93</ele>
       <time>2014-11-07T19:37:49Z</time>
      </trkpt>
      <trkpt lat="48.594455" lon="5.970921">
       <ele>320.37</ele>
       <time>2014-11-07T19:37:58Z</time>
      </trkpt>
      <trkpt lat="48.594879" lon="5.970694">
       <ele>322.21</ele>
       <time>2014-11-07T19:38:07Z</time>
      </trkpt>
      <trkpt lat="48.595428" lon="5.970170">
       <ele>323.46</ele>
       <time>2014-11-07T19:38:21Z</time>
      </trkpt>
      <trkpt lat="48.595695" lon="5.969853">
       <ele>323.48</ele>
       <time>2014-11-07T19:38:28Z</time>
      </trkpt>
      <trkpt lat="48.595897" lon="5.969585">
       <ele>323.15</ele>
       <time>2014-11-07T19:38:34Z</time>
      </trkpt>
      <trkpt lat="48.596157" lon="5.969172">
       <ele>322.44</ele>
       <time>2014-11-07T19:38:41Z</time>
      </trkpt>
      <trkpt lat="48.596450" lon="5.968585">
       <ele>321.04</ele>
       <time>2014-11-07T19:38:51Z</time>
      </trkpt>
      <trkpt lat="48.596679" lon="5.967913">
       <ele>319.91</ele>
       <time>2014-11-07T19:39:02Z</time>
      </trkpt>
      <trkpt lat="48.596813" lon="5.967422">
       <ele>319.29</ele>
       <time>2014-11-07T19:39:09Z</time>
      </trkpt>
      <trkpt lat="48.597057" lon="5.965939">
       <ele>320.47</ele>
       <time>2014-11-07T19:39:30Z</time>
      </trkpt>
      <trkpt lat="48.598506" lon="5.955529">
       <ele>316.02</ele>
       <time>2014-11-07T19:41:56Z</time>
      </trkpt>
      <trkpt lat="48.600330" lon="5.942605">
       <ele>301.95</ele>
       <time>2014-11-07T19:44:57Z</time>
      </trkpt>
      <trkpt lat="48.600402" lon="5.942252">
       <ele>301.42</ele>
       <time>2014-11-07T19:45:02Z</time>
      </trkpt>
      <trkpt lat="48.600643" lon="5.941458">
       <ele>298.84</ele>
       <time>2014-11-07T19:45:14Z</time>
      </trkpt>
      <trkpt lat="48.600959" lon="5.940620">
       <ele>295.45</ele>
       <time>2014-11-07T19:45:27Z</time>
      </trkpt>
      <trkpt lat="48.601268" lon="5.939993">
       <ele>291.44</ele>
       <time>2014-11-07T19:45:38Z</time>
      </trkpt>
      <trkpt lat="48.601787" lon="5.939220">
       <ele>286.45</ele>
       <time>2014-11-07T19:45:53Z</time>
      </trkpt>
      <trkpt lat="48.602699" lon="5.938356">
       <ele>288.7</ele>
       <time>2014-11-07T19:46:16Z</time>
      </trkpt>
      <trkpt lat="48.612285" lon="5.929694">
       <ele>276.53</ele>
       <time>2014-11-07T19:50:07Z</time>
      </trkpt>
      <trkpt lat="48.621620" lon="5.921223">
       <ele>248.99</ele>
       <time>2014-11-07T19:53:53Z</time>
      </trkpt>
      <trkpt lat="48.621990" lon="5.920873">
       <ele>246.95</ele>
       <time>2014-11-07T19:54:02Z</time>
      </trkpt>
      <trkpt lat="48.622119" lon="5.920718">
       <ele>246.02</ele>
       <time>2014-11-07T19:54:05Z</time>
      </trkpt>
      <trkpt lat="48.622215" lon="5.920539">
       <ele>245.09</ele>
       <time>2014-11-07T19:54:08Z</time>
      </trkpt>
      <trkpt lat="48.623046" lon="5.918684">
       <ele>238.14</ele>
       <time>2014-11-07T19:54:39Z</time>
      </trkpt>
      <trkpt lat="48.623298" lon="5.918262">
       <ele>235.33</ele>
       <time>2014-11-07T19:54:47Z</time>
      </trkpt>
      <trkpt lat="48.624172" lon="5.917160">
       <ele>230.17</ele>
       <time>2014-11-07T19:55:11Z</time>
      </trkpt>
      <trkpt lat="48.625038" lon="5.916102">
       <ele>225.74</ele>
       <time>2014-11-07T19:55:34Z</time>
      </trkpt>
      <trkpt lat="48.625278" lon="5.915748">
       <ele>225.73</ele>
       <time>2014-11-07T19:55:41Z</time>
      </trkpt>
      <trkpt lat="48.625324" lon="5.915630">
       <ele>225.36</ele>
       <time>2014-11-07T19:55:42Z</time>
      </trkpt>
      <trkpt lat="48.625358" lon="5.915480">
       <ele>224.91</ele>
       <time>2014-11-07T19:55:45Z</time>
      </trkpt>
      <trkpt lat="48.625442" lon="5.914834">
       <ele>222.44</ele>
       <time>2014-11-07T19:55:54Z</time>
      </trkpt>
      <trkpt lat="48.625495" lon="5.914668">
       <ele>221.44</ele>
       <time>2014-11-07T19:55:56Z</time>
      </trkpt>
      <trkpt lat="48.625560" lon="5.914513">
       <ele>220.56</ele>
       <time>2014-11-07T19:55:59Z</time>
      </trkpt>
      <trkpt lat="48.625926" lon="5.913916">
       <ele>218.69</ele>
       <time>2014-11-07T19:56:10Z</time>
      </trkpt>
      <trkpt lat="48.626022" lon="5.913723">
       <ele>218.66</ele>
       <time>2014-11-07T19:56:13Z</time>
      </trkpt>
      <trkpt lat="48.626384" lon="5.912701">
       <ele>218.71</ele>
       <time>2014-11-07T19:56:29Z</time>
      </trkpt>
      <trkpt lat="48.626487" lon="5.912350">
       <ele>219.14</ele>
       <time>2014-11-07T19:56:34Z</time>
      </trkpt>
      <trkpt lat="48.626964" lon="5.910130">
       <ele>219.74</ele>
       <time>2014-11-07T19:57:06Z</time>
      </trkpt>
      <trkpt lat="48.627143" lon="5.909412">
       <ele>217.41</ele>
       <time>2014-11-07T19:57:17Z</time>
      </trkpt>
      <trkpt lat="48.627277" lon="5.909086">
       <ele>216.23</ele>
       <time>2014-11-07T19:57:22Z</time>
      </trkpt>
      <trkpt lat="48.627399" lon="5.908841">
       <ele>215.68</ele>
       <time>2014-11-07T19:57:26Z</time>
      </trkpt>
      <trkpt lat="48.627532" lon="5.908669">
       <ele>215.28</ele>
       <time>2014-11-07T19:57:30Z</time>
      </trkpt>
      <trkpt lat="48.627609" lon="5.908594">
       <ele>215.15</ele>
       <time>2014-11-07T19:57:32Z</time>
      </trkpt>
      <trkpt lat="48.627742" lon="5.908523">
       <ele>215.11</ele>
       <time>2014-11-07T19:57:35Z</time>
      </trkpt>
      <trkpt lat="48.627841" lon="5.908494">
       <ele>215.15</ele>
       <time>2014-11-07T19:57:37Z</time>
      </trkpt>
      <trkpt lat="48.628067" lon="5.908500">
       <ele>215.55</ele>
       <time>2014-11-07T19:57:41Z</time>
      </trkpt>
      <trkpt lat="48.630565" lon="5.908730">
       <ele>220.95</ele>
       <time>2014-11-07T19:58:33Z</time>
      </trkpt>
      <trkpt lat="48.630825" lon="5.908706">
       <ele>222.21</ele>
       <time>2014-11-07T19:58:39Z</time>
      </trkpt>
      <trkpt lat="48.631031" lon="5.908638">
       <ele>223.02</ele>
       <time>2014-11-07T19:58:43Z</time>
      </trkpt>
      <trkpt lat="48.631332" lon="5.908463">
       <ele>222.97</ele>
       <time>2014-11-07T19:58:50Z</time>
      </trkpt>
      <trkpt lat="48.631961" lon="5.907879">
       <ele>218.52</ele>
       <time>2014-11-07T19:59:05Z</time>
      </trkpt>
      <trkpt lat="48.632091" lon="5.907789">
       <ele>217.5</ele>
       <time>2014-11-07T19:59:08Z</time>
      </trkpt>
      <trkpt lat="48.632255" lon="5.907724">
       <ele>216.85</ele>
       <time>2014-11-07T19:59:12Z</time>
      </trkpt>
      <trkpt lat="48.632442" lon="5.907713">
       <ele>216.98</ele>
       <time>2014-11-07T19:59:15Z</time>
      </trkpt>
      <trkpt lat="48.632595" lon="5.907754">
       <ele>217.25</ele>
       <time>2014-11-07T19:59:19Z</time>
      </trkpt>
      <trkpt lat="48.632934" lon="5.907949">
       <ele>218.02</ele>
       <time>2014-11-07T19:59:26Z</time>
      </trkpt>
      <trkpt lat="48.635334" lon="5.909478">
       <ele>215.97</ele>
       <time>2014-11-07T20:00:20Z</time>
      </trkpt>
      <trkpt lat="48.635486" lon="5.909512">
       <ele>216.17</ele>
       <time>2014-11-07T20:00:23Z</time>
      </trkpt>
      <trkpt lat="48.635643" lon="5.909522">
       <ele>216.25</ele>
       <time>2014-11-07T20:00:27Z</time>
      </trkpt>
      <trkpt lat="48.635955" lon="5.909420">
       <ele>217.03</ele>
       <time>2014-11-07T20:00:33Z</time>
      </trkpt>
      <trkpt lat="48.636676" lon="5.908811">
       <ele>218.74</ele>
       <time>2014-11-07T20:00:50Z</time>
      </trkpt>
      <trkpt lat="48.636875" lon="5.908604">
       <ele>219.68</ele>
       <time>2014-11-07T20:00:55Z</time>
      </trkpt>
      <trkpt lat="48.637058" lon="5.908308">
       <ele>219.45</ele>
       <time>2014-11-07T20:01:01Z</time>
      </trkpt>
      <trkpt lat="48.637870" lon="5.906256">
       <ele>214.38</ele>
       <time>2014-11-07T20:01:34Z</time>
      </trkpt>
      <trkpt lat="48.637973" lon="5.906055">
       <ele>213.93</ele>
       <time>2014-11-07T20:01:37Z</time>
      </trkpt>
      <trkpt lat="48.638103" lon="5.905858">
       <ele>213.53</ele>
       <time>2014-11-07T20:01:41Z</time>
      </trkpt>
      <trkpt lat="48.638191" lon="5.905778">
       <ele>213.65</ele>
       <time>2014-11-07T20:01:43Z</time>
      </trkpt>
      <trkpt lat="48.638404" lon="5.905666">
       <ele>213.78</ele>
       <time>2014-11-07T20:01:48Z</time>
      </trkpt>
      <trkpt lat="48.638740" lon="5.905604">
       <ele>213.21</ele>
       <time>2014-11-07T20:01:55Z</time>
      </trkpt>
      <trkpt lat="48.641128" lon="5.905357">
       <ele>209.72</ele>
       <time>2014-11-07T20:02:44Z</time>
      </trkpt>
      <trkpt lat="48.641838" lon="5.905261">
       <ele>209.95</ele>
       <time>2014-11-07T20:02:59Z</time>
      </trkpt>
      <trkpt lat="48.641967" lon="5.905207">
       <ele>210.1</ele>
       <time>2014-11-07T20:03:02Z</time>
      </trkpt>
      <trkpt lat="48.642105" lon="5.905110">
       <ele>209.96</ele>
       <time>2014-11-07T20:03:05Z</time>
      </trkpt>
      <trkpt lat="48.642261" lon="5.904942">
       <ele>209.71</ele>
       <time>2014-11-07T20:03:09Z</time>
      </trkpt>
      <trkpt lat="48.645408" lon="5.900619">
       <ele>207.72</ele>
       <time>2014-11-07T20:04:37Z</time>
      </trkpt>
      <trkpt lat="48.645633" lon="5.900188">
       <ele>207.75</ele>
       <time>2014-11-07T20:04:45Z</time>
      </trkpt>
      <trkpt lat="48.646179" lon="5.899003">
       <ele>207.08</ele>
       <time>2014-11-07T20:05:05Z</time>
      </trkpt>
      <trkpt lat="48.646675" lon="5.897974">
       <ele>209.27</ele>
       <time>2014-11-07T20:05:22Z</time>
      </trkpt>
      <trkpt lat="48.647056" lon="5.897421">
       <ele>210.79</ele>
       <time>2014-11-07T20:05:33Z</time>
      </trkpt>
      <trkpt lat="48.647369" lon="5.897089">
       <ele>214.13</ele>
       <time>2014-11-07T20:05:41Z</time>
      </trkpt>
      <trkpt lat="48.647659" lon="5.896828">
       <ele>215.56</ele>
       <time>2014-11-07T20:05:48Z</time>
      </trkpt>
      <trkpt lat="48.648021" lon="5.896564">
       <ele>216.15</ele>
       <time>2014-11-07T20:05:56Z</time>
      </trkpt>
      <trkpt lat="48.648300" lon="5.896399">
       <ele>218.23</ele>
       <time>2014-11-07T20:06:02Z</time>
      </trkpt>
      <trkpt lat="48.648593" lon="5.896252">
       <ele>220.23</ele>
       <time>2014-11-07T20:06:09Z</time>
      </trkpt>
      <trkpt lat="48.648849" lon="5.896148">
       <ele>220.9</ele>
       <time>2014-11-07T20:06:14Z</time>
      </trkpt>
      <trkpt lat="48.649311" lon="5.896004">
       <ele>220.75</ele>
       <time>2014-11-07T20:06:24Z</time>
      </trkpt>
      <trkpt lat="48.649532" lon="5.895967">
       <ele>220.29</ele>
       <time>2014-11-07T20:06:29Z</time>
      </trkpt>
      <trkpt lat="48.650363" lon="5.896009">
       <ele>217.58</ele>
       <time>2014-11-07T20:06:46Z</time>
      </trkpt>
      <trkpt lat="48.650794" lon="5.896047">
       <ele>217.61</ele>
       <time>2014-11-07T20:06:55Z</time>
      </trkpt>
      <trkpt lat="48.651130" lon="5.896038">
       <ele>213.95</ele>
       <time>2014-11-07T20:07:02Z</time>
      </trkpt>
      <trkpt lat="48.652080" lon="5.895908">
       <ele>207</ele>
       <time>2014-11-07T20:07:22Z</time>
      </trkpt>
      <trkpt lat="48.652576" lon="5.895769">
       <ele>207.64</ele>
       <time>2014-11-07T20:07:32Z</time>
      </trkpt>
      <trkpt lat="48.652820" lon="5.895614">
       <ele>209.33</ele>
       <time>2014-11-07T20:07:38Z</time>
      </trkpt>
      <trkpt lat="48.652961" lon="5.895614">
       <ele>209.54</ele>
       <time>2014-11-07T20:07:41Z</time>
      </trkpt>
      <trkpt lat="48.653160" lon="5.895542">
       <ele>210.51</ele>
       <time>2014-11-07T20:07:45Z</time>
      </trkpt>
      <trkpt lat="48.653320" lon="5.895521">
       <ele>210.98</ele>
       <time>2014-11-07T20:07:48Z</time>
      </trkpt>
      <trkpt lat="48.653621" lon="5.895402">
       <ele>211.26</ele>
       <time>2014-11-07T20:07:55Z</time>
      </trkpt>
      <trkpt lat="48.654483" lon="5.894876">
       <ele>211.8</ele>
       <time>2014-11-07T20:08:14Z</time>
      </trkpt>
      <trkpt lat="48.655010" lon="5.894514">
       <ele>212.03</ele>
       <time>2014-11-07T20:08:26Z</time>
      </trkpt>
      <trkpt lat="48.655891" lon="5.893627">
       <ele>210.67</ele>
       <time>2014-11-07T20:08:48Z</time>
      </trkpt>
      <trkpt lat="48.656452" lon="5.893030">
       <ele>209.2</ele>
       <time>2014-11-07T20:09:02Z</time>
      </trkpt>
      <trkpt lat="48.656730" lon="5.893918">
       <ele>206.85</ele>
       <time>2014-11-07T20:09:15Z</time>
      </trkpt>
      <trkpt lat="48.656917" lon="5.893711">
       <ele>206.4</ele>
       <time>2014-11-07T20:09:20Z</time>
      </trkpt>
      <trkpt lat="48.657058" lon="5.893582">
       <ele>206.06</ele>
       <time>2014-11-07T20:09:24Z</time>
      </trkpt>
      <trkpt lat="48.657970" lon="5.892877">
       <ele>205.79</ele>
       <time>2014-11-07T20:09:45Z</time>
      </trkpt>
      <trkpt lat="48.658523" lon="5.892497">
       <ele>206</ele>
       <time>2014-11-07T20:09:58Z</time>
      </trkpt>
      <trkpt lat="48.659141" lon="5.892179">
       <ele>205.61</ele>
       <time>2014-11-07T20:10:11Z</time>
      </trkpt>
      <trkpt lat="48.659309" lon="5.892052">
       <ele>205.45</ele>
       <time>2014-11-07T20:10:15Z</time>
      </trkpt>
      <trkpt lat="48.659477" lon="5.891888">
       <ele>205.09</ele>
       <time>2014-11-07T20:10:19Z</time>
      </trkpt>
      <trkpt lat="48.660900" lon="5.889875">
       <ele>205.92</ele>
       <time>2014-11-07T20:10:59Z</time>
      </trkpt>
      <trkpt lat="48.661056" lon="5.889718">
       <ele>205.84</ele>
       <time>2014-11-07T20:11:03Z</time>
      </trkpt>
      <trkpt lat="48.661918" lon="5.889142">
       <ele>205.02</ele>
       <time>2014-11-07T20:11:23Z</time>
      </trkpt>
      <trkpt lat="48.662261" lon="5.889027">
       <ele>205.05</ele>
       <time>2014-11-07T20:11:30Z</time>
      </trkpt>
      <trkpt lat="48.662700" lon="5.889006">
       <ele>205.19</ele>
       <time>2014-11-07T20:11:39Z</time>
      </trkpt>
      <trkpt lat="48.663246" lon="5.889172">
       <ele>205.89</ele>
       <time>2014-11-07T20:11:51Z</time>
      </trkpt>
      <trkpt lat="48.663539" lon="5.889109">
       <ele>205.97</ele>
       <time>2014-11-07T20:11:57Z</time>
      </trkpt>
      <trkpt lat="48.663944" lon="5.889110">
       <ele>206.03</ele>
       <time>2014-11-07T20:12:05Z</time>
      </trkpt>
      <trkpt lat="48.665847" lon="5.889370">
       <ele>205.99</ele>
       <time>2014-11-07T20:12:45Z</time>
      </trkpt>
      <trkpt lat="48.667961" lon="5.889684">
       <ele>205.45</ele>
       <time>2014-11-07T20:13:29Z</time>
      </trkpt>
      <trkpt lat="48.668186" lon="5.889835">
       <ele>205.77</ele>
       <time>2014-11-07T20:13:34Z</time>
      </trkpt>
      <trkpt lat="48.668678" lon="5.890276">
       <ele>206.33</ele>
       <time>2014-11-07T20:13:46Z</time>
      </trkpt>
      <trkpt lat="48.668739" lon="5.890348">
       <ele>206.42</ele>
       <time>2014-11-07T20:13:48Z</time>
      </trkpt>
      <trkpt lat="48.668972" lon="5.890963">
       <ele>206.89</ele>
       <time>2014-11-07T20:13:57Z</time>
      </trkpt>
      <trkpt lat="48.669879" lon="5.893509">
       <ele>204.37</ele>
       <time>2014-11-07T20:14:37Z</time>
      </trkpt>
      <trkpt lat="48.669879" lon="5.893633">
       <ele>204.33</ele>
       <time>2014-11-07T20:14:39Z</time>
      </trkpt>
      <trkpt lat="48.669845" lon="5.893757">
       <ele>204.37</ele>
       <time>2014-11-07T20:14:40Z</time>
      </trkpt>
      <trkpt lat="48.669876" lon="5.893988">
       <ele>204.21</ele>
       <time>2014-11-07T20:14:44Z</time>
      </trkpt>
      <trkpt lat="48.670852" lon="5.894864">
       <ele>203.42</ele>
       <time>2014-11-07T20:15:07Z</time>
      </trkpt>
      <trkpt lat="48.671096" lon="5.895052">
       <ele>204.21</ele>
       <time>2014-11-07T20:15:13Z</time>
      </trkpt>
      <trkpt lat="48.671367" lon="5.895306">
       <ele>204.86</ele>
       <time>2014-11-07T20:15:19Z</time>
      </trkpt>
      <trkpt lat="48.671516" lon="5.895411">
       <ele>205.07</ele>
       <time>2014-11-07T20:15:23Z</time>
      </trkpt>
      <trkpt lat="48.671539" lon="5.893990">
       <ele>207.18</ele>
       <time>2014-11-07T20:15:42Z</time>
      </trkpt>
      <trkpt lat="48.671375" lon="5.891530">
       <ele>205.89</ele>
       <time>2014-11-07T20:16:16Z</time>
      </trkpt>
      <trkpt lat="48.671375" lon="5.891310">
       <ele>205.72</ele>
       <time>2014-11-07T20:16:19Z</time>
      </trkpt>
      <trkpt lat="48.671432" lon="5.890676">
       <ele>205.42</ele>
       <time>2014-11-07T20:16:28Z</time>
      </trkpt>
      <trkpt lat="48.671649" lon="5.889472">
       <ele>206</ele>
       <time>2014-11-07T20:16:45Z</time>
      </trkpt>
      <trkpt lat="48.671825" lon="5.888834">
       <ele>206.59</ele>
       <time>2014-11-07T20:16:55Z</time>
      </trkpt>
      <trkpt lat="48.672172" lon="5.887967">
       <ele>207.7</ele>
       <time>2014-11-07T20:17:08Z</time>
      </trkpt>
      <trkpt lat="48.672817" lon="5.886705">
       <ele>208.81</ele>
       <time>2014-11-07T20:17:30Z</time>
      </trkpt>
      <trkpt lat="48.673023" lon="5.886371">
       <ele>209.61</ele>
       <time>2014-11-07T20:17:37Z</time>
      </trkpt>
      <trkpt lat="48.673248" lon="5.886075">
       <ele>210.51</ele>
       <time>2014-11-07T20:17:43Z</time>
      </trkpt>
      <trkpt lat="48.674537" lon="5.884987">
       <ele>209.48</ele>
       <time>2014-11-07T20:18:13Z</time>
      </trkpt>
      <trkpt lat="48.676113" lon="5.883700">
       <ele>211.52</ele>
       <time>2014-11-07T20:18:50Z</time>
      </trkpt>
      <trkpt lat="48.677616" lon="5.882414">
       <ele>213.79</ele>
       <time>2014-11-07T20:19:26Z</time>
      </trkpt>
      <trkpt lat="48.677803" lon="5.882288">
       <ele>213.57</ele>
       <time>2014-11-07T20:19:30Z</time>
      </trkpt>
      <trkpt lat="48.677928" lon="5.882249">
       <ele>213.49</ele>
       <time>2014-11-07T20:19:33Z</time>
      </trkpt>
      <trkpt lat="48.678081" lon="5.882225">
       <ele>213.43</ele>
       <time>2014-11-07T20:19:36Z</time>
      </trkpt>
      <trkpt lat="48.678184" lon="5.882232">
       <ele>213.39</ele>
       <time>2014-11-07T20:19:38Z</time>
      </trkpt>
      <trkpt lat="48.678260" lon="5.882256">
       <ele>213.33</ele>
       <time>2014-11-07T20:19:40Z</time>
      </trkpt>
      <trkpt lat="48.679458" lon="5.883354">
       <ele>214.7</ele>
       <time>2014-11-07T20:20:09Z</time>
      </trkpt>
      <trkpt lat="48.679603" lon="5.883464">
       <ele>215.22</ele>
       <time>2014-11-07T20:20:12Z</time>
      </trkpt>
      <trkpt lat="48.679718" lon="5.883503">
       <ele>215.7</ele>
       <time>2014-11-07T20:20:15Z</time>
      </trkpt>
      <trkpt lat="48.679809" lon="5.883512">
       <ele>216.15</ele>
       <time>2014-11-07T20:20:17Z</time>
      </trkpt>
      <trkpt lat="48.679950" lon="5.883469">
       <ele>217.08</ele>
       <time>2014-11-07T20:20:20Z</time>
      </trkpt>
      <trkpt lat="48.680206" lon="5.883303">
       <ele>219.3</ele>
       <time>2014-11-07T20:20:26Z</time>
      </trkpt>
      <trkpt lat="48.680286" lon="5.883237">
       <ele>219.91</ele>
       <time>2014-11-07T20:20:27Z</time>
      </trkpt>
      <trkpt lat="48.680362" lon="5.883124">
       <ele>220.57</ele>
       <time>2014-11-07T20:20:30Z</time>
      </trkpt>
      <trkpt lat="48.680412" lon="5.883015">
       <ele>221.05</ele>
       <time>2014-11-07T20:20:31Z</time>
      </trkpt>
      <trkpt lat="48.680446" lon="5.882915">
       <ele>221.41</ele>
       <time>2014-11-07T20:20:33Z</time>
      </trkpt>
      <trkpt lat="48.680469" lon="5.882771">
       <ele>221.79</ele>
       <time>2014-11-07T20:20:35Z</time>
      </trkpt>
      <trkpt lat="48.680477" lon="5.882522">
       <ele>222.25</ele>
       <time>2014-11-07T20:20:38Z</time>
      </trkpt>
      <trkpt lat="48.680244" lon="5.880987">
       <ele>225.32</ele>
       <time>2014-11-07T20:21:00Z</time>
      </trkpt>
      <trkpt lat="48.680141" lon="5.880569">
       <ele>226.19</ele>
       <time>2014-11-07T20:21:06Z</time>
      </trkpt>
      <trkpt lat="48.679725" lon="5.879264">
       <ele>226.76</ele>
       <time>2014-11-07T20:21:26Z</time>
      </trkpt>
      <trkpt lat="48.679664" lon="5.878983">
       <ele>227.04</ele>
       <time>2014-11-07T20:21:30Z</time>
      </trkpt>
      <trkpt lat="48.679637" lon="5.878786">
       <ele>227.46</ele>
       <time>2014-11-07T20:21:33Z</time>
      </trkpt>
      <trkpt lat="48.679607" lon="5.878285">
       <ele>228.96</ele>
       <time>2014-11-07T20:21:40Z</time>
      </trkpt>
      <trkpt lat="48.679615" lon="5.877874">
       <ele>230.79</ele>
       <time>2014-11-07T20:21:45Z</time>
      </trkpt>
      <trkpt lat="48.679782" lon="5.876749">
       <ele>234.39</ele>
       <time>2014-11-07T20:22:01Z</time>
      </trkpt>
      <trkpt lat="48.679836" lon="5.876185">
       <ele>234.68</ele>
       <time>2014-11-07T20:22:09Z</time>
      </trkpt>
      <trkpt lat="48.679832" lon="5.875788">
       <ele>234.34</ele>
       <time>2014-11-07T20:22:14Z</time>
      </trkpt>
      <trkpt lat="48.679794" lon="5.875070">
       <ele>233.32</ele>
       <time>2014-11-07T20:22:24Z</time>
      </trkpt>
      <trkpt lat="48.679809" lon="5.874609">
       <ele>231.91</ele>
       <time>2014-11-07T20:22:30Z</time>
      </trkpt>
      <trkpt lat="48.679950" lon="5.874547">
       <ele>232.19</ele>
       <time>2014-11-07T20:22:34Z</time>
      </trkpt>
      <trkpt lat="48.680061" lon="5.874394">
       <ele>232.17</ele>
       <time>2014-11-07T20:22:37Z</time>
      </trkpt>
      <trkpt lat="48.680229" lon="5.874146">
       <ele>232.29</ele>
       <time>2014-11-07T20:22:41Z</time>
      </trkpt>
      <trkpt lat="48.680671" lon="5.873395">
       <ele>231.51</ele>
       <time>2014-11-07T20:22:55Z</time>
      </trkpt>
      <trkpt lat="48.680786" lon="5.873249">
       <ele>231.17</ele>
       <time>2014-11-07T20:22:58Z</time>
      </trkpt>
      <trkpt lat="48.681053" lon="5.873004">
       <ele>230.52</ele>
       <time>2014-11-07T20:23:05Z</time>
      </trkpt>
      <trkpt lat="48.682182" lon="5.872241">
       <ele>230.42</ele>
       <time>2014-11-07T20:23:30Z</time>
      </trkpt>
      <trkpt lat="48.682529" lon="5.872048">
       <ele>230.22</ele>
       <time>2014-11-07T20:23:38Z</time>
      </trkpt>
      <trkpt lat="48.683307" lon="5.871849">
       <ele>227.7</ele>
       <time>2014-11-07T20:23:54Z</time>
      </trkpt>
      <trkpt lat="48.683864" lon="5.871201">
       <ele>228.91</ele>
       <time>2014-11-07T20:24:09Z</time>
      </trkpt>
      <trkpt lat="48.684123" lon="5.870982">
       <ele>229.85</ele>
       <time>2014-11-07T20:24:15Z</time>
      </trkpt>
      <trkpt lat="48.685832" lon="5.870345">
       <ele>236.83</ele>
       <time>2014-11-07T20:24:52Z</time>
      </trkpt>
      <trkpt lat="48.686012" lon="5.870340">
       <ele>237.46</ele>
       <time>2014-11-07T20:24:55Z</time>
      </trkpt>
      <trkpt lat="48.686164" lon="5.870360">
       <ele>238.06</ele>
       <time>2014-11-07T20:24:59Z</time>
      </trkpt>
      <trkpt lat="48.687477" lon="5.870744">
       <ele>243.81</ele>
       <time>2014-11-07T20:25:26Z</time>
      </trkpt>
      <trkpt lat="48.687984" lon="5.871009">
       <ele>246.73</ele>
       <time>2014-11-07T20:25:37Z</time>
      </trkpt>
      <trkpt lat="48.688991" lon="5.871699">
       <ele>251.87</ele>
       <time>2014-11-07T20:26:00Z</time>
      </trkpt>
      <trkpt lat="48.689235" lon="5.871817">
       <ele>253.63</ele>
       <time>2014-11-07T20:26:06Z</time>
      </trkpt>
      <trkpt lat="48.689514" lon="5.871901">
       <ele>255.87</ele>
       <time>2014-11-07T20:26:12Z</time>
      </trkpt>
      <trkpt lat="48.689788" lon="5.871942">
       <ele>257.79</ele>
       <time>2014-11-07T20:26:17Z</time>
      </trkpt>
      <trkpt lat="48.690227" lon="5.871944">
       <ele>260.27</ele>
       <time>2014-11-07T20:26:26Z</time>
      </trkpt>
      <trkpt lat="48.690666" lon="5.871815">
       <ele>261.46</ele>
       <time>2014-11-07T20:26:36Z</time>
      </trkpt>
      <trkpt lat="48.690967" lon="5.871671">
       <ele>260.88</ele>
       <time>2014-11-07T20:26:42Z</time>
      </trkpt>
      <trkpt lat="48.692916" lon="5.870556">
       <ele>247.33</ele>
       <time>2014-11-07T20:27:25Z</time>
      </trkpt>
      <trkpt lat="48.693893" lon="5.870024">
       <ele>244.29</ele>
       <time>2014-11-07T20:27:47Z</time>
      </trkpt>
      <trkpt lat="48.694583" lon="5.869749">
       <ele>243.7</ele>
       <time>2014-11-07T20:28:02Z</time>
      </trkpt>
      <trkpt lat="48.697612" lon="5.869390">
       <ele>230.36</ele>
       <time>2014-11-07T20:29:05Z</time>
      </trkpt>
      <trkpt lat="48.698257" lon="5.869204">
       <ele>228.27</ele>
       <time>2014-11-07T20:29:18Z</time>
      </trkpt>
      <trkpt lat="48.699134" lon="5.868897">
       <ele>226.12</ele>
       <time>2014-11-07T20:29:37Z</time>
      </trkpt>
      <trkpt lat="48.699680" lon="5.868651">
       <ele>224.91</ele>
       <time>2014-11-07T20:29:49Z</time>
      </trkpt>
      <trkpt lat="48.700084" lon="5.868394">
       <ele>224.12</ele>
       <time>2014-11-07T20:29:58Z</time>
      </trkpt>
      <trkpt lat="48.700275" lon="5.868194">
       <ele>224.06</ele>
       <time>2014-11-07T20:30:03Z</time>
      </trkpt>
      <trkpt lat="48.700557" lon="5.867783">
       <ele>224.44</ele>
       <time>2014-11-07T20:30:11Z</time>
      </trkpt>
      <trkpt lat="48.701385" lon="5.866413">
       <ele>223.77</ele>
       <time>2014-11-07T20:30:36Z</time>
      </trkpt>
      <trkpt lat="48.703891" lon="5.862347">
       <ele>225.49</ele>
       <time>2014-11-07T20:31:52Z</time>
      </trkpt>
      <trkpt lat="48.704505" lon="5.861138">
       <ele>229.04</ele>
       <time>2014-11-07T20:32:13Z</time>
      </trkpt>
      <trkpt lat="48.705234" lon="5.859529">
       <ele>231.01</ele>
       <time>2014-11-07T20:32:40Z</time>
      </trkpt>
      <trkpt lat="48.705341" lon="5.859333">
       <ele>231.54</ele>
       <time>2014-11-07T20:32:43Z</time>
      </trkpt>
      <trkpt lat="48.705486" lon="5.859144">
       <ele>232.18</ele>
       <time>2014-11-07T20:32:47Z</time>
      </trkpt>
      <trkpt lat="48.705638" lon="5.859045">
       <ele>232.57</ele>
       <time>2014-11-07T20:32:51Z</time>
      </trkpt>
      <trkpt lat="48.705856" lon="5.858956">
       <ele>232.99</ele>
       <time>2014-11-07T20:32:56Z</time>
      </trkpt>
      <trkpt lat="48.707557" lon="5.858695">
       <ele>233.46</ele>
       <time>2014-11-07T20:33:31Z</time>
      </trkpt>
      <trkpt lat="48.707904" lon="5.858654">
       <ele>232.83</ele>
       <time>2014-11-07T20:33:38Z</time>
      </trkpt>
      <trkpt lat="48.708309" lon="5.858737">
       <ele>232.04</ele>
       <time>2014-11-07T20:33:47Z</time>
      </trkpt>
      <trkpt lat="48.709434" lon="5.859055">
       <ele>232.04</ele>
       <time>2014-11-07T20:34:10Z</time>
      </trkpt>
      <trkpt lat="48.709632" lon="5.859087">
       <ele>232.05</ele>
       <time>2014-11-07T20:34:14Z</time>
      </trkpt>
      <trkpt lat="48.709831" lon="5.859097">
       <ele>232.07</ele>
       <time>2014-11-07T20:34:19Z</time>
      </trkpt>
      <trkpt lat="48.710121" lon="5.859072">
       <ele>231.98</ele>
       <time>2014-11-07T20:34:25Z</time>
      </trkpt>
      <trkpt lat="48.710979" lon="5.858932">
       <ele>231.86</ele>
       <time>2014-11-07T20:34:43Z</time>
      </trkpt>
      <trkpt lat="48.711742" lon="5.858839">
       <ele>233.3</ele>
       <time>2014-11-07T20:34:58Z</time>
      </trkpt>
      <trkpt lat="48.712123" lon="5.858767">
       <ele>232.93</ele>
       <time>2014-11-07T20:35:06Z</time>
      </trkpt>
      <trkpt lat="48.712757" lon="5.858532">
       <ele>232.22</ele>
       <time>2014-11-07T20:35:20Z</time>
      </trkpt>
      <trkpt lat="48.712963" lon="5.858434">
       <ele>231.83</ele>
       <time>2014-11-07T20:35:24Z</time>
      </trkpt>
      <trkpt lat="48.713157" lon="5.858290">
       <ele>231.42</ele>
       <time>2014-11-07T20:35:29Z</time>
      </trkpt>
      <trkpt lat="48.713653" lon="5.857789">
       <ele>230.1</ele>
       <time>2014-11-07T20:35:41Z</time>
      </trkpt>
      <trkpt lat="48.713855" lon="5.857657">
       <ele>229.63</ele>
       <time>2014-11-07T20:35:46Z</time>
      </trkpt>
      <trkpt lat="48.714042" lon="5.857584">
       <ele>229.21</ele>
       <time>2014-11-07T20:35:50Z</time>
      </trkpt>
      <trkpt lat="48.714969" lon="5.857364">
       <ele>230.13</ele>
       <time>2014-11-07T20:36:09Z</time>
      </trkpt>
      <trkpt lat="48.715282" lon="5.857255">
       <ele>230.63</ele>
       <time>2014-11-07T20:36:16Z</time>
      </trkpt>
      <trkpt lat="48.715892" lon="5.856935">
       <ele>231.61</ele>
       <time>2014-11-07T20:36:29Z</time>
      </trkpt>
      <trkpt lat="48.716068" lon="5.856820">
       <ele>231.53</ele>
       <time>2014-11-07T20:36:33Z</time>
      </trkpt>
      <trkpt lat="48.716217" lon="5.856698">
       <ele>231.5</ele>
       <time>2014-11-07T20:36:37Z</time>
      </trkpt>
      <trkpt lat="48.716545" lon="5.856272">
       <ele>232.02</ele>
       <time>2014-11-07T20:36:46Z</time>
      </trkpt>
      <trkpt lat="48.717006" lon="5.855535">
       <ele>233.72</ele>
       <time>2014-11-07T20:37:00Z</time>
      </trkpt>
      <trkpt lat="48.717132" lon="5.855369">
       <ele>234.11</ele>
       <time>2014-11-07T20:37:03Z</time>
      </trkpt>
      <trkpt lat="48.717262" lon="5.855225">
       <ele>234.46</ele>
       <time>2014-11-07T20:37:06Z</time>
      </trkpt>
      <trkpt lat="48.717594" lon="5.854917">
       <ele>235.39</ele>
       <time>2014-11-07T20:37:14Z</time>
      </trkpt>
      <trkpt lat="48.717815" lon="5.854674">
       <ele>236.42</ele>
       <time>2014-11-07T20:37:20Z</time>
      </trkpt>
      <trkpt lat="48.718036" lon="5.854393">
       <ele>237.44</ele>
       <time>2014-11-07T20:37:26Z</time>
      </trkpt>
      <trkpt lat="48.718582" lon="5.853536">
       <ele>238.23</ele>
       <time>2014-11-07T20:37:42Z</time>
      </trkpt>
      <trkpt lat="48.718769" lon="5.853302">
       <ele>238.01</ele>
       <time>2014-11-07T20:37:47Z</time>
      </trkpt>
      <trkpt lat="48.718948" lon="5.853116">
       <ele>237.98</ele>
       <time>2014-11-07T20:37:52Z</time>
      </trkpt>
      <trkpt lat="48.719848" lon="5.852363">
       <ele>237.56</ele>
       <time>2014-11-07T20:38:13Z</time>
      </trkpt>
      <trkpt lat="48.720954" lon="5.851296">
       <ele>238.33</ele>
       <time>2014-11-07T20:38:40Z</time>
      </trkpt>
      <trkpt lat="48.721199" lon="5.851014">
       <ele>239.35</ele>
       <time>2014-11-07T20:38:47Z</time>
      </trkpt>
      <trkpt lat="48.721576" lon="5.850450">
       <ele>241.38</ele>
       <time>2014-11-07T20:38:58Z</time>
      </trkpt>
      <trkpt lat="48.721954" lon="5.849820">
       <ele>242.04</ele>
       <time>2014-11-07T20:39:09Z</time>
      </trkpt>
      <trkpt lat="48.722080" lon="5.849552">
       <ele>241.78</ele>
       <time>2014-11-07T20:39:14Z</time>
      </trkpt>
      <trkpt lat="48.722446" lon="5.848649">
       <ele>241.75</ele>
       <time>2014-11-07T20:39:28Z</time>
      </trkpt>
      <trkpt lat="48.723426" lon="5.847167">
       <ele>243.8</ele>
       <time>2014-11-07T20:39:57Z</time>
      </trkpt>
      <trkpt lat="48.723583" lon="5.846962">
       <ele>244.29</ele>
       <time>2014-11-07T20:40:01Z</time>
      </trkpt>
      <trkpt lat="48.723743" lon="5.846805">
       <ele>244.67</ele>
       <time>2014-11-07T20:40:05Z</time>
      </trkpt>
      <trkpt lat="48.724266" lon="5.846373">
       <ele>245.32</ele>
       <time>2014-11-07T20:40:18Z</time>
      </trkpt>
      <trkpt lat="48.724887" lon="5.845911">
       <ele>246.61</ele>
       <time>2014-11-07T20:40:32Z</time>
      </trkpt>
      <trkpt lat="48.725669" lon="5.845497">
       <ele>247</ele>
       <time>2014-11-07T20:40:49Z</time>
      </trkpt>
      <trkpt lat="48.726116" lon="5.845167">
       <ele>246.24</ele>
       <time>2014-11-07T20:41:00Z</time>
      </trkpt>
      <trkpt lat="48.726905" lon="5.844405">
       <ele>246.47</ele>
       <time>2014-11-07T20:41:19Z</time>
      </trkpt>
      <trkpt lat="48.727924" lon="5.843647">
       <ele>251.8</ele>
       <time>2014-11-07T20:41:43Z</time>
      </trkpt>
      <trkpt lat="48.728649" lon="5.842751">
       <ele>253.86</ele>
       <time>2014-11-07T20:42:02Z</time>
      </trkpt>
      <trkpt lat="48.729232" lon="5.842109">
       <ele>252.88</ele>
       <time>2014-11-07T20:42:17Z</time>
      </trkpt>
      <trkpt lat="48.729431" lon="5.841931">
       <ele>253.73</ele>
       <time>2014-11-07T20:42:22Z</time>
      </trkpt>
      <trkpt lat="48.729698" lon="5.841725">
       <ele>254.72</ele>
       <time>2014-11-07T20:42:28Z</time>
      </trkpt>
      <trkpt lat="48.730445" lon="5.841266">
       <ele>253.56</ele>
       <time>2014-11-07T20:42:45Z</time>
      </trkpt>
      <trkpt lat="48.730571" lon="5.841086">
       <ele>253.17</ele>
       <time>2014-11-07T20:42:48Z</time>
      </trkpt>
      <trkpt lat="48.730846" lon="5.840559">
       <ele>252.29</ele>
       <time>2014-11-07T20:42:57Z</time>
      </trkpt>
      <trkpt lat="48.730945" lon="5.840414">
       <ele>252.23</ele>
       <time>2014-11-07T20:43:00Z</time>
      </trkpt>
      <trkpt lat="48.731433" lon="5.839923">
       <ele>252.68</ele>
       <time>2014-11-07T20:43:12Z</time>
      </trkpt>
      <trkpt lat="48.731918" lon="5.839366">
       <ele>253.61</ele>
       <time>2014-11-07T20:43:25Z</time>
      </trkpt>
      <trkpt lat="48.732200" lon="5.838991">
       <ele>253.16</ele>
       <time>2014-11-07T20:43:33Z</time>
      </trkpt>
      <trkpt lat="48.732292" lon="5.838829">
       <ele>252.85</ele>
       <time>2014-11-07T20:43:36Z</time>
      </trkpt>
      <trkpt lat="48.732360" lon="5.838605">
       <ele>252.73</ele>
       <time>2014-11-07T20:43:39Z</time>
      </trkpt>
      <trkpt lat="48.732429" lon="5.837985">
       <ele>253.92</ele>
       <time>2014-11-07T20:43:48Z</time>
      </trkpt>
      <trkpt lat="48.732463" lon="5.837411">
       <ele>256.03</ele>
       <time>2014-11-07T20:43:56Z</time>
      </trkpt>
      <trkpt lat="48.732490" lon="5.834358">
       <ele>262.19</ele>
       <time>2014-11-07T20:44:37Z</time>
      </trkpt>
      <trkpt lat="48.732521" lon="5.833949">
       <ele>262.51</ele>
       <time>2014-11-07T20:44:43Z</time>
      </trkpt>
      <trkpt lat="48.732570" lon="5.833737">
       <ele>261.81</ele>
       <time>2014-11-07T20:44:46Z</time>
      </trkpt>
      <trkpt lat="48.732883" lon="5.833032">
       <ele>259.96</ele>
       <time>2014-11-07T20:44:58Z</time>
      </trkpt>
      <trkpt lat="48.733066" lon="5.832464">
       <ele>259.88</ele>
       <time>2014-11-07T20:45:06Z</time>
      </trkpt>
      <trkpt lat="48.733444" lon="5.830556">
       <ele>256.71</ele>
       <time>2014-11-07T20:45:33Z</time>
      </trkpt>
      <trkpt lat="48.733478" lon="5.830233">
       <ele>256.77</ele>
       <time>2014-11-07T20:45:38Z</time>
      </trkpt>
      <trkpt lat="48.733524" lon="5.828608">
       <ele>255.85</ele>
       <time>2014-11-07T20:46:00Z</time>
      </trkpt>
      <trkpt lat="48.733551" lon="5.828433">
       <ele>255.69</ele>
       <time>2014-11-07T20:46:03Z</time>
      </trkpt>
      <trkpt lat="48.733657" lon="5.828076">
       <ele>255.17</ele>
       <time>2014-11-07T20:46:08Z</time>
      </trkpt>
      <trkpt lat="48.734149" lon="5.826968">
       <ele>253.08</ele>
       <time>2014-11-07T20:46:26Z</time>
      </trkpt>
      <trkpt lat="48.734294" lon="5.826711">
       <ele>252.55</ele>
       <time>2014-11-07T20:46:31Z</time>
      </trkpt>
      <trkpt lat="48.735115" lon="5.825506">
       <ele>250.2</ele>
       <time>2014-11-07T20:46:55Z</time>
      </trkpt>
      <trkpt lat="48.735313" lon="5.825066">
       <ele>250.2</ele>
       <time>2014-11-07T20:47:02Z</time>
      </trkpt>
      <trkpt lat="48.735950" lon="5.822938">
       <ele>244.9</ele>
       <time>2014-11-07T20:47:34Z</time>
      </trkpt>
      <trkpt lat="48.736118" lon="5.822497">
       <ele>244</ele>
       <time>2014-11-07T20:47:41Z</time>
      </trkpt>
      <trkpt lat="48.736286" lon="5.822168">
       <ele>244.4</ele>
       <time>2014-11-07T20:47:47Z</time>
      </trkpt>
      <trkpt lat="48.737934" lon="5.819562">
       <ele>242.79</ele>
       <time>2014-11-07T20:48:36Z</time>
      </trkpt>
      <trkpt lat="48.738941" lon="5.818028">
       <ele>245.37</ele>
       <time>2014-11-07T20:49:05Z</time>
      </trkpt>
      <trkpt lat="48.739013" lon="5.817896">
       <ele>245.52</ele>
       <time>2014-11-07T20:49:08Z</time>
      </trkpt>
      <trkpt lat="48.739051" lon="5.817770">
       <ele>245.68</ele>
       <time>2014-11-07T20:49:10Z</time>
      </trkpt>
      <trkpt lat="48.739067" lon="5.817612">
       <ele>245.87</ele>
       <time>2014-11-07T20:49:12Z</time>
      </trkpt>
      <trkpt lat="48.739051" lon="5.817335">
       <ele>245.86</ele>
       <time>2014-11-07T20:49:16Z</time>
      </trkpt>
      <trkpt lat="48.738910" lon="5.816298">
       <ele>245.17</ele>
       <time>2014-11-07T20:49:30Z</time>
      </trkpt>
      <trkpt lat="48.738910" lon="5.816110">
       <ele>244.95</ele>
       <time>2014-11-07T20:49:33Z</time>
      </trkpt>
      <trkpt lat="48.738956" lon="5.815783">
       <ele>244.46</ele>
       <time>2014-11-07T20:49:37Z</time>
      </trkpt>
      <trkpt lat="48.739143" lon="5.814970">
       <ele>243.9</ele>
       <time>2014-11-07T20:49:49Z</time>
      </trkpt>
      <trkpt lat="48.739204" lon="5.814550">
       <ele>242.78</ele>
       <time>2014-11-07T20:49:55Z</time>
      </trkpt>
      <trkpt lat="48.739261" lon="5.813969">
       <ele>241.48</ele>
       <time>2014-11-07T20:50:03Z</time>
      </trkpt>
      <trkpt lat="48.739253" lon="5.813364">
       <ele>240.92</ele>
       <time>2014-11-07T20:50:11Z</time>
      </trkpt>
      <trkpt lat="48.739166" lon="5.811944">
       <ele>237.33</ele>
       <time>2014-11-07T20:50:31Z</time>
      </trkpt>
      <trkpt lat="48.739162" lon="5.811470">
       <ele>237.48</ele>
       <time>2014-11-07T20:50:37Z</time>
      </trkpt>
      <trkpt lat="48.739330" lon="5.809408">
       <ele>238.43</ele>
       <time>2014-11-07T20:51:06Z</time>
      </trkpt>
      <trkpt lat="48.739322" lon="5.809111">
       <ele>238.78</ele>
       <time>2014-11-07T20:51:10Z</time>
      </trkpt>
      <trkpt lat="48.739303" lon="5.808822">
       <ele>239.63</ele>
       <time>2014-11-07T20:51:14Z</time>
      </trkpt>
      <trkpt lat="48.739231" lon="5.808241">
       <ele>241.24</ele>
       <time>2014-11-07T20:51:22Z</time>
      </trkpt>
      <trkpt lat="48.739173" lon="5.807928">
       <ele>241.98</ele>
       <time>2014-11-07T20:51:26Z</time>
      </trkpt>
      <trkpt lat="48.738784" lon="5.806418">
       <ele>242.47</ele>
       <time>2014-11-07T20:51:48Z</time>
      </trkpt>
      <trkpt lat="48.738468" lon="5.805284">
       <ele>242.08</ele>
       <time>2014-11-07T20:52:05Z</time>
      </trkpt>
      <trkpt lat="48.738445" lon="5.805130">
       <ele>241.92</ele>
       <time>2014-11-07T20:52:07Z</time>
      </trkpt>
      <trkpt lat="48.738452" lon="5.805006">
       <ele>242</ele>
       <time>2014-11-07T20:52:09Z</time>
      </trkpt>
      <trkpt lat="48.738510" lon="5.804821">
       <ele>242.35</ele>
       <time>2014-11-07T20:52:12Z</time>
      </trkpt>
      <trkpt lat="48.740730" lon="5.801464">
       <ele>241.27</ele>
       <time>2014-11-07T20:53:17Z</time>
      </trkpt>
      <trkpt lat="48.741996" lon="5.799601">
       <ele>239.98</ele>
       <time>2014-11-07T20:53:53Z</time>
      </trkpt>
      <trkpt lat="48.742126" lon="5.799376">
       <ele>239.03</ele>
       <time>2014-11-07T20:53:58Z</time>
      </trkpt>
      <trkpt lat="48.742202" lon="5.799160">
       <ele>237.99</ele>
       <time>2014-11-07T20:54:01Z</time>
      </trkpt>
      <trkpt lat="48.742919" lon="5.796431">
       <ele>236.13</ele>
       <time>2014-11-07T20:54:41Z</time>
      </trkpt>
      <trkpt lat="48.743347" lon="5.793711">
       <ele>239.67</ele>
       <time>2014-11-07T20:55:19Z</time>
      </trkpt>
      <trkpt lat="48.743453" lon="5.793167">
       <ele>241.33</ele>
       <time>2014-11-07T20:55:27Z</time>
      </trkpt>
      <trkpt lat="48.743511" lon="5.793005">
       <ele>241.1</ele>
       <time>2014-11-07T20:55:30Z</time>
      </trkpt>
      <trkpt lat="48.743602" lon="5.792931">
       <ele>240.7</ele>
       <time>2014-11-07T20:55:32Z</time>
      </trkpt>
      <trkpt lat="48.744194" lon="5.792650">
       <ele>238.92</ele>
       <time>2014-11-07T20:55:45Z</time>
      </trkpt>
      <trkpt lat="48.744316" lon="5.792562">
       <ele>240.44</ele>
       <time>2014-11-07T20:55:47Z</time>
      </trkpt>
      <trkpt lat="48.744525" lon="5.792254">
       <ele>243.34</ele>
       <time>2014-11-07T20:55:53Z</time>
      </trkpt>
      <trkpt lat="48.745655" lon="5.790215">
       <ele>248.8</ele>
       <time>2014-11-07T20:56:30Z</time>
      </trkpt>
      <trkpt lat="48.745742" lon="5.789895">
       <ele>249.13</ele>
       <time>2014-11-07T20:56:35Z</time>
      </trkpt>
      <trkpt lat="48.746559" lon="5.786341">
       <ele>248.3</ele>
       <time>2014-11-07T20:57:26Z</time>
      </trkpt>
      <trkpt lat="48.746891" lon="5.784817">
       <ele>244.15</ele>
       <time>2014-11-07T20:57:48Z</time>
      </trkpt>
      <trkpt lat="48.747207" lon="5.782907">
       <ele>244.98</ele>
       <time>2014-11-07T20:58:15Z</time>
      </trkpt>
      <trkpt lat="48.747356" lon="5.780406">
       <ele>246.42</ele>
       <time>2014-11-07T20:58:49Z</time>
      </trkpt>
      <trkpt lat="48.747798" lon="5.778306">
       <ele>246.67</ele>
       <time>2014-11-07T20:59:19Z</time>
      </trkpt>
      <trkpt lat="48.747852" lon="5.777708">
       <ele>247.33</ele>
       <time>2014-11-07T20:59:28Z</time>
      </trkpt>
      <trkpt lat="48.747833" lon="5.777428">
       <ele>247.53</ele>
       <time>2014-11-07T20:59:31Z</time>
      </trkpt>
      <trkpt lat="48.747585" lon="5.775580">
       <ele>246.72</ele>
       <time>2014-11-07T20:59:57Z</time>
      </trkpt>
      <trkpt lat="48.747432" lon="5.773962">
       <ele>248.57</ele>
       <time>2014-11-07T21:00:20Z</time>
      </trkpt>
      <trkpt lat="48.747383" lon="5.773705">
       <ele>249.12</ele>
       <time>2014-11-07T21:00:23Z</time>
      </trkpt>
      <trkpt lat="48.746543" lon="5.771553">
       <ele>251.46</ele>
       <time>2014-11-07T21:00:57Z</time>
      </trkpt>
      <trkpt lat="48.746234" lon="5.770626">
       <ele>253.05</ele>
       <time>2014-11-07T21:01:12Z</time>
      </trkpt>
      <trkpt lat="48.745960" lon="5.769690">
       <ele>253.37</ele>
       <time>2014-11-07T21:01:26Z</time>
      </trkpt>
      <trkpt lat="48.745662" lon="5.768568">
       <ele>256.05</ele>
       <time>2014-11-07T21:01:42Z</time>
      </trkpt>
      <trkpt lat="48.745662" lon="5.768405">
       <ele>256.44</ele>
       <time>2014-11-07T21:01:44Z</time>
      </trkpt>
      <trkpt lat="48.745754" lon="5.768196">
       <ele>256.61</ele>
       <time>2014-11-07T21:01:48Z</time>
      </trkpt>
      <trkpt lat="48.746414" lon="5.767220">
       <ele>258.67</ele>
       <time>2014-11-07T21:02:07Z</time>
      </trkpt>
      <trkpt lat="48.746776" lon="5.766685">
       <ele>259.82</ele>
       <time>2014-11-07T21:02:17Z</time>
      </trkpt>
      <trkpt lat="48.747543" lon="5.765857">
       <ele>261.86</ele>
       <time>2014-11-07T21:02:37Z</time>
      </trkpt>
      <trkpt lat="48.747859" lon="5.765492">
       <ele>264.78</ele>
       <time>2014-11-07T21:02:45Z</time>
      </trkpt>
      <trkpt lat="48.748371" lon="5.764803">
       <ele>266.47</ele>
       <time>2014-11-07T21:02:59Z</time>
      </trkpt>
      <trkpt lat="48.748893" lon="5.764171">
       <ele>264.95</ele>
       <time>2014-11-07T21:03:13Z</time>
      </trkpt>
      <trkpt lat="48.749076" lon="5.764009">
       <ele>264.53</ele>
       <time>2014-11-07T21:03:18Z</time>
      </trkpt>
      <trkpt lat="48.749153" lon="5.764010">
       <ele>263.87</ele>
       <time>2014-11-07T21:03:19Z</time>
      </trkpt>
      <trkpt lat="48.749298" lon="5.763947">
       <ele>263.62</ele>
       <time>2014-11-07T21:03:22Z</time>
      </trkpt>
      <trkpt lat="48.749641" lon="5.763233">
       <ele>266.29</ele>
       <time>2014-11-07T21:03:34Z</time>
      </trkpt>
      <trkpt lat="48.749721" lon="5.763123">
       <ele>266.59</ele>
       <time>2014-11-07T21:03:37Z</time>
      </trkpt>
      <trkpt lat="48.749809" lon="5.763006">
       <ele>266.94</ele>
       <time>2014-11-07T21:03:39Z</time>
      </trkpt>
      <trkpt lat="48.750442" lon="5.762392">
       <ele>268.1</ele>
       <time>2014-11-07T21:03:55Z</time>
      </trkpt>
      <trkpt lat="48.750526" lon="5.762342">
       <ele>268.02</ele>
       <time>2014-11-07T21:03:57Z</time>
      </trkpt>
      <trkpt lat="48.750610" lon="5.762324">
       <ele>267.72</ele>
       <time>2014-11-07T21:03:58Z</time>
      </trkpt>
      <trkpt lat="48.750679" lon="5.762371">
       <ele>267.16</ele>
       <time>2014-11-07T21:04:00Z</time>
      </trkpt>
      <trkpt lat="48.750732" lon="5.762461">
       <ele>266.53</ele>
       <time>2014-11-07T21:04:02Z</time>
      </trkpt>
      <trkpt lat="48.751007" lon="5.763185">
       <ele>262.59</ele>
       <time>2014-11-07T21:04:13Z</time>
      </trkpt>
      <trkpt lat="48.751068" lon="5.763278">
       <ele>262.02</ele>
       <time>2014-11-07T21:04:15Z</time>
      </trkpt>
      <trkpt lat="48.751209" lon="5.763381">
       <ele>261.1</ele>
       <time>2014-11-07T21:04:18Z</time>
      </trkpt>
      <trkpt lat="48.753776" lon="5.763711">
       <ele>253.73</ele>
       <time>2014-11-07T21:05:11Z</time>
      </trkpt>
      <trkpt lat="48.754417" lon="5.763752">
       <ele>253.15</ele>
       <time>2014-11-07T21:05:25Z</time>
      </trkpt>
      <trkpt lat="48.754821" lon="5.763738">
       <ele>253.41</ele>
       <time>2014-11-07T21:05:33Z</time>
      </trkpt>
      <trkpt lat="48.755020" lon="5.763711">
       <ele>253.54</ele>
       <time>2014-11-07T21:05:37Z</time>
      </trkpt>
      <trkpt lat="48.755222" lon="5.763659">
       <ele>253.5</ele>
       <time>2014-11-07T21:05:42Z</time>
      </trkpt>
      <trkpt lat="48.755420" lon="5.763573">
       <ele>253.57</ele>
       <time>2014-11-07T21:05:46Z</time>
      </trkpt>
      <trkpt lat="48.755622" lon="5.763460">
       <ele>253.73</ele>
       <time>2014-11-07T21:05:50Z</time>
      </trkpt>
      <trkpt lat="48.755908" lon="5.763257">
       <ele>253.83</ele>
       <time>2014-11-07T21:05:57Z</time>
      </trkpt>
      <trkpt lat="48.756195" lon="5.763011">
       <ele>253.3</ele>
       <time>2014-11-07T21:06:04Z</time>
      </trkpt>
      <trkpt lat="48.756610" lon="5.762557">
       <ele>253</ele>
       <time>2014-11-07T21:06:14Z</time>
      </trkpt>
      <trkpt lat="48.757438" lon="5.761599">
       <ele>252.3</ele>
       <time>2014-11-07T21:06:36Z</time>
      </trkpt>
      <trkpt lat="48.757877" lon="5.761158">
       <ele>252.61</ele>
       <time>2014-11-07T21:06:47Z</time>
      </trkpt>
      <trkpt lat="48.758468" lon="5.760632">
       <ele>253.24</ele>
       <time>2014-11-07T21:07:01Z</time>
      </trkpt>
      <trkpt lat="48.759353" lon="5.759930">
       <ele>256.07</ele>
       <time>2014-11-07T21:07:22Z</time>
      </trkpt>
      <trkpt lat="48.760238" lon="5.759190">
       <ele>255.43</ele>
       <time>2014-11-07T21:07:43Z</time>
      </trkpt>
      <trkpt lat="48.763069" lon="5.756460">
       <ele>251.91</ele>
       <time>2014-11-07T21:08:52Z</time>
      </trkpt>
      <trkpt lat="48.763675" lon="5.755735">
       <ele>249.93</ele>
       <time>2014-11-07T21:09:08Z</time>
      </trkpt>
      <trkpt lat="48.763885" lon="5.755433">
       <ele>249.81</ele>
       <time>2014-11-07T21:09:14Z</time>
      </trkpt>
      <trkpt lat="48.764099" lon="5.755083">
       <ele>249.97</ele>
       <time>2014-11-07T21:09:21Z</time>
      </trkpt>
      <trkpt lat="48.768085" lon="5.748002">
       <ele>250.65</ele>
       <time>2014-11-07T21:11:28Z</time>
      </trkpt>
      <trkpt lat="48.768348" lon="5.747484">
       <ele>253.11</ele>
       <time>2014-11-07T21:11:37Z</time>
      </trkpt>
      <trkpt lat="48.770114" lon="5.743549">
       <ele>257.66</ele>
       <time>2014-11-07T21:12:42Z</time>
      </trkpt>
      <trkpt lat="48.771110" lon="5.741653">
       <ele>256.7</ele>
       <time>2014-11-07T21:13:15Z</time>
      </trkpt>
      <trkpt lat="48.771831" lon="5.740373">
       <ele>255.57</ele>
       <time>2014-11-07T21:13:38Z</time>
      </trkpt>
      <trkpt lat="48.771991" lon="5.740064">
       <ele>255.86</ele>
       <time>2014-11-07T21:13:43Z</time>
      </trkpt>
      <trkpt lat="48.772087" lon="5.739823">
       <ele>255.8</ele>
       <time>2014-11-07T21:13:47Z</time>
      </trkpt>
      <trkpt lat="48.772163" lon="5.739441">
       <ele>256.09</ele>
       <time>2014-11-07T21:13:53Z</time>
      </trkpt>
      <trkpt lat="48.772109" lon="5.738935">
       <ele>257.02</ele>
       <time>2014-11-07T21:14:00Z</time>
      </trkpt>
      <trkpt lat="48.771591" lon="5.734992">
       <ele>252.24</ele>
       <time>2014-11-07T21:14:55Z</time>
      </trkpt>
      <trkpt lat="48.771526" lon="5.734612">
       <ele>251.19</ele>
       <time>2014-11-07T21:15:00Z</time>
      </trkpt>
      <trkpt lat="48.771446" lon="5.734299">
       <ele>250.49</ele>
       <time>2014-11-07T21:15:05Z</time>
      </trkpt>
      <trkpt lat="48.771064" lon="5.733300">
       <ele>251.8</ele>
       <time>2014-11-07T21:15:20Z</time>
      </trkpt>
      <trkpt lat="48.770259" lon="5.731328">
       <ele>251.56</ele>
       <time>2014-11-07T21:15:52Z</time>
      </trkpt>
      <trkpt lat="48.770088" lon="5.730834">
       <ele>251.79</ele>
       <time>2014-11-07T21:16:00Z</time>
      </trkpt>
      <trkpt lat="48.769939" lon="5.730343">
       <ele>252.17</ele>
       <time>2014-11-07T21:16:07Z</time>
      </trkpt>
      <trkpt lat="48.769634" lon="5.728919">
       <ele>256.22</ele>
       <time>2014-11-07T21:16:28Z</time>
      </trkpt>
      <trkpt lat="48.769573" lon="5.728771">
       <ele>256.75</ele>
       <time>2014-11-07T21:16:30Z</time>
      </trkpt>
      <trkpt lat="48.769027" lon="5.727628">
       <ele>260.67</ele>
       <time>2014-11-07T21:16:49Z</time>
      </trkpt>
      <trkpt lat="48.768821" lon="5.727305">
       <ele>261.19</ele>
       <time>2014-11-07T21:16:55Z</time>
      </trkpt>
      <trkpt lat="48.768653" lon="5.727107">
       <ele>261.58</ele>
       <time>2014-11-07T21:17:00Z</time>
      </trkpt>
      <trkpt lat="48.768482" lon="5.726959">
       <ele>262.07</ele>
       <time>2014-11-07T21:17:04Z</time>
      </trkpt>
      <trkpt lat="48.766529" lon="5.725758">
       <ele>263.53</ele>
       <time>2014-11-07T21:17:48Z</time>
      </trkpt>
      <trkpt lat="48.764717" lon="5.724213">
       <ele>271.21</ele>
       <time>2014-11-07T21:18:31Z</time>
      </trkpt>
      <trkpt lat="48.764152" lon="5.720951">
       <ele>273.41</ele>
       <time>2014-11-07T21:19:17Z</time>
      </trkpt>
      <trkpt lat="48.763698" lon="5.719748">
       <ele>277.49</ele>
       <time>2014-11-07T21:19:36Z</time>
      </trkpt>
      <trkpt lat="48.764461" lon="5.716251">
       <ele>279.46</ele>
       <time>2014-11-07T21:20:26Z</time>
      </trkpt>
      <trkpt lat="48.764579" lon="5.715610">
       <ele>279.86</ele>
       <time>2014-11-07T21:20:35Z</time>
      </trkpt>
      <trkpt lat="48.764656" lon="5.714890">
       <ele>280.94</ele>
       <time>2014-11-07T21:20:45Z</time>
      </trkpt>
      <trkpt lat="48.764659" lon="5.713819">
       <ele>284.94</ele>
       <time>2014-11-07T21:21:00Z</time>
      </trkpt>
      <trkpt lat="48.764591" lon="5.713204">
       <ele>286.87</ele>
       <time>2014-11-07T21:21:08Z</time>
      </trkpt>
      <trkpt lat="48.764472" lon="5.712456">
       <ele>283.75</ele>
       <time>2014-11-07T21:21:19Z</time>
      </trkpt>
      <trkpt lat="48.764205" lon="5.711254">
       <ele>279.74</ele>
       <time>2014-11-07T21:21:36Z</time>
      </trkpt>
      <trkpt lat="48.764213" lon="5.710498">
       <ele>279.9</ele>
       <time>2014-11-07T21:21:47Z</time>
      </trkpt>
      <trkpt lat="48.764270" lon="5.709781">
       <ele>280.13</ele>
       <time>2014-11-07T21:21:56Z</time>
      </trkpt>
      <trkpt lat="48.764759" lon="5.707600">
       <ele>288.25</ele>
       <time>2014-11-07T21:22:28Z</time>
      </trkpt>
      <trkpt lat="48.764831" lon="5.706873">
       <ele>290.15</ele>
       <time>2014-11-07T21:22:38Z</time>
      </trkpt>
      <trkpt lat="48.764823" lon="5.704608">
       <ele>290</ele>
       <time>2014-11-07T21:23:09Z</time>
      </trkpt>
      <trkpt lat="48.764766" lon="5.703769">
       <ele>288.41</ele>
       <time>2014-11-07T21:23:20Z</time>
      </trkpt>
      <trkpt lat="48.764644" lon="5.702826">
       <ele>285.86</ele>
       <time>2014-11-07T21:23:34Z</time>
      </trkpt>
      <trkpt lat="48.764610" lon="5.702016">
       <ele>283.77</ele>
       <time>2014-11-07T21:23:45Z</time>
      </trkpt>
      <trkpt lat="48.764507" lon="5.700465">
       <ele>282.48</ele>
       <time>2014-11-07T21:24:06Z</time>
      </trkpt>
      <trkpt lat="48.764377" lon="5.698881">
       <ele>278.73</ele>
       <time>2014-11-07T21:24:28Z</time>
      </trkpt>
      <trkpt lat="48.764324" lon="5.698040">
       <ele>276.89</ele>
       <time>2014-11-07T21:24:39Z</time>
      </trkpt>
      <trkpt lat="48.764312" lon="5.697744">
       <ele>275.95</ele>
       <time>2014-11-07T21:24:43Z</time>
      </trkpt>
      <trkpt lat="48.764335" lon="5.697503">
       <ele>275.21</ele>
       <time>2014-11-07T21:24:47Z</time>
      </trkpt>
      <trkpt lat="48.764438" lon="5.697311">
       <ele>274.79</ele>
       <time>2014-11-07T21:24:50Z</time>
      </trkpt>
      <trkpt lat="48.765022" lon="5.696909">
       <ele>275.32</ele>
       <time>2014-11-07T21:25:03Z</time>
      </trkpt>
      <trkpt lat="48.769550" lon="5.693503">
       <ele>273.33</ele>
       <time>2014-11-07T21:26:48Z</time>
      </trkpt>
      <trkpt lat="48.769817" lon="5.693194">
       <ele>274.4</ele>
       <time>2014-11-07T21:26:55Z</time>
      </trkpt>
      <trkpt lat="48.770069" lon="5.692862">
       <ele>276.21</ele>
       <time>2014-11-07T21:27:02Z</time>
      </trkpt>
      <trkpt lat="48.771522" lon="5.691760">
       <ele>275.16</ele>
       <time>2014-11-07T21:27:36Z</time>
      </trkpt>
      <trkpt lat="48.771854" lon="5.691634">
       <ele>275.37</ele>
       <time>2014-11-07T21:27:43Z</time>
      </trkpt>
      <trkpt lat="48.772083" lon="5.691657">
       <ele>275.55</ele>
       <time>2014-11-07T21:27:48Z</time>
      </trkpt>
      <trkpt lat="48.772369" lon="5.691781">
       <ele>275.2</ele>
       <time>2014-11-07T21:27:54Z</time>
      </trkpt>
      <trkpt lat="48.772651" lon="5.692214">
       <ele>272.54</ele>
       <time>2014-11-07T21:28:02Z</time>
      </trkpt>
      <trkpt lat="48.772865" lon="5.692616">
       <ele>269.69</ele>
       <time>2014-11-07T21:28:09Z</time>
      </trkpt>
      <trkpt lat="48.774562" lon="5.694001">
       <ele>265.7</ele>
       <time>2014-11-07T21:28:49Z</time>
      </trkpt>
      <trkpt lat="48.775352" lon="5.693655">
       <ele>265.9</ele>
       <time>2014-11-07T21:29:06Z</time>
      </trkpt>
      <trkpt lat="48.777729" lon="5.691596">
       <ele>265.94</ele>
       <time>2014-11-07T21:30:03Z</time>
      </trkpt>
      <trkpt lat="48.778747" lon="5.690909">
       <ele>267.48</ele>
       <time>2014-11-07T21:30:26Z</time>
      </trkpt>
      <trkpt lat="48.780441" lon="5.687647">
       <ele>271.28</ele>
       <time>2014-11-07T21:31:23Z</time>
      </trkpt>
      <trkpt lat="48.781459" lon="5.686962">
       <ele>269.5</ele>
       <time>2014-11-07T21:31:46Z</time>
      </trkpt>
      <trkpt lat="48.790149" lon="5.680285">
       <ele>287.89</ele>
       <time>2014-11-07T21:35:08Z</time>
      </trkpt>
      <trkpt lat="48.790397" lon="5.680096">
       <ele>287.21</ele>
       <time>2014-11-07T21:35:14Z</time>
      </trkpt>
      <trkpt lat="48.792606" lon="5.676107">
       <ele>281</ele>
       <time>2014-11-07T21:36:25Z</time>
      </trkpt>
      <trkpt lat="48.792976" lon="5.675299">
       <ele>280.09</ele>
       <time>2014-11-07T21:36:38Z</time>
      </trkpt>
      <trkpt lat="48.793182" lon="5.675085">
       <ele>277.44</ele>
       <time>2014-11-07T21:36:43Z</time>
      </trkpt>
      <trkpt lat="48.793361" lon="5.675302">
       <ele>274.03</ele>
       <time>2014-11-07T21:36:48Z</time>
      </trkpt>
      <trkpt lat="48.793811" lon="5.675268">
       <ele>270.13</ele>
       <time>2014-11-07T21:36:57Z</time>
      </trkpt>
      <trkpt lat="48.795787" lon="5.674292">
       <ele>259.85</ele>
       <time>2014-11-07T21:37:40Z</time>
      </trkpt>
      <trkpt lat="48.796810" lon="5.673676">
       <ele>251.79</ele>
       <time>2014-11-07T21:38:03Z</time>
      </trkpt>
      <trkpt lat="48.797512" lon="5.673324">
       <ele>251.95</ele>
       <time>2014-11-07T21:38:19Z</time>
      </trkpt>
      <trkpt lat="48.797908" lon="5.673291">
       <ele>250.5</ele>
       <time>2014-11-07T21:38:27Z</time>
      </trkpt>
      <trkpt lat="48.798667" lon="5.672797">
       <ele>248.08</ele>
       <time>2014-11-07T21:38:44Z</time>
      </trkpt>
      <trkpt lat="48.815879" lon="5.664658">
       <ele>232.58</ele>
       <time>2014-11-07T21:44:58Z</time>
      </trkpt>
      <trkpt lat="48.816314" lon="5.664484">
       <ele>234.35</ele>
       <time>2014-11-07T21:45:07Z</time>
      </trkpt>
      <trkpt lat="48.817321" lon="5.664239">
       <ele>238.99</ele>
       <time>2014-11-07T21:45:28Z</time>
      </trkpt>
      <trkpt lat="48.817535" lon="5.664156">
       <ele>239.99</ele>
       <time>2014-11-07T21:45:33Z</time>
      </trkpt>
      <trkpt lat="48.818340" lon="5.663753">
       <ele>240</ele>
       <time>2014-11-07T21:45:50Z</time>
      </trkpt>
      <trkpt lat="48.819465" lon="5.662989">
       <ele>240.09</ele>
       <time>2014-11-07T21:46:16Z</time>
      </trkpt>
      <trkpt lat="48.820320" lon="5.662569">
       <ele>237.99</ele>
       <time>2014-11-07T21:46:35Z</time>
      </trkpt>
      <trkpt lat="48.850269" lon="5.648409">
       <ele>249.71</ele>
       <time>2014-11-07T21:57:25Z</time>
      </trkpt>
      <trkpt lat="48.851779" lon="5.647709">
       <ele>246.23</ele>
       <time>2014-11-07T21:57:58Z</time>
      </trkpt>
      <trkpt lat="48.854061" lon="5.646653">
       <ele>248.02</ele>
       <time>2014-11-07T21:58:47Z</time>
      </trkpt>
      <trkpt lat="48.854591" lon="5.646575">
       <ele>249.19</ele>
       <time>2014-11-07T21:58:58Z</time>
      </trkpt>
      <trkpt lat="48.854808" lon="5.646615">
       <ele>249.65</ele>
       <time>2014-11-07T21:59:03Z</time>
      </trkpt>
      <trkpt lat="48.854854" lon="5.646731">
       <ele>249.38</ele>
       <time>2014-11-07T21:59:05Z</time>
      </trkpt>
      <trkpt lat="48.854900" lon="5.646761">
       <ele>249.35</ele>
       <time>2014-11-07T21:59:06Z</time>
      </trkpt>
      <trkpt lat="48.854946" lon="5.646762">
       <ele>249.44</ele>
       <time>2014-11-07T21:59:07Z</time>
      </trkpt>
      <trkpt lat="48.855010" lon="5.646707">
       <ele>249.81</ele>
       <time>2014-11-07T21:59:08Z</time>
      </trkpt>
      <trkpt lat="48.855037" lon="5.646623">
       <ele>250.1</ele>
       <time>2014-11-07T21:59:09Z</time>
      </trkpt>
      <trkpt lat="48.855033" lon="5.646553">
       <ele>250.27</ele>
       <time>2014-11-07T21:59:10Z</time>
      </trkpt>
      <trkpt lat="48.855003" lon="5.646468">
       <ele>250.48</ele>
       <time>2014-11-07T21:59:12Z</time>
      </trkpt>
      <trkpt lat="48.854938" lon="5.646420">
       <ele>250.42</ele>
       <time>2014-11-07T21:59:13Z</time>
      </trkpt>
      <trkpt lat="48.854980" lon="5.640769">
       <ele>258.15</ele>
       <time>2014-11-07T22:00:30Z</time>
      </trkpt>
      <trkpt lat="48.854969" lon="5.640171">
       <ele>259.53</ele>
       <time>2014-11-07T22:00:38Z</time>
      </trkpt>
      <trkpt lat="48.854999" lon="5.638577">
       <ele>264.83</ele>
       <time>2014-11-07T22:01:00Z</time>
      </trkpt>
      <trkpt lat="48.855098" lon="5.638319">
       <ele>266.48</ele>
       <time>2014-11-07T22:01:04Z</time>
      </trkpt>
      <trkpt lat="48.855274" lon="5.638092">
       <ele>269.3</ele>
       <time>2014-11-07T22:01:09Z</time>
      </trkpt>
      <trkpt lat="48.855525" lon="5.637925">
       <ele>272.25</ele>
       <time>2014-11-07T22:01:15Z</time>
      </trkpt>
      <trkpt lat="48.855815" lon="5.637856">
       <ele>274.63</ele>
       <time>2014-11-07T22:01:21Z</time>
      </trkpt>
      <trkpt lat="48.857799" lon="5.637970">
       <ele>302.01</ele>
       <time>2014-11-07T22:02:02Z</time>
      </trkpt>
      <trkpt lat="48.858142" lon="5.638028">
       <ele>303.83</ele>
       <time>2014-11-07T22:02:09Z</time>
      </trkpt>
      <trkpt lat="48.858844" lon="5.638253">
       <ele>305.9</ele>
       <time>2014-11-07T22:02:24Z</time>
      </trkpt>
      <trkpt lat="48.859920" lon="5.638710">
       <ele>305.25</ele>
       <time>2014-11-07T22:02:47Z</time>
      </trkpt>
      <trkpt lat="48.860195" lon="5.638739">
       <ele>304.45</ele>
       <time>2014-11-07T22:02:53Z</time>
      </trkpt>
      <trkpt lat="48.860328" lon="5.638700">
       <ele>304.77</ele>
       <time>2014-11-07T22:02:56Z</time>
      </trkpt>
      <trkpt lat="48.860546" lon="5.638511">
       <ele>307.7</ele>
       <time>2014-11-07T22:03:01Z</time>
      </trkpt>
      <trkpt lat="48.860713" lon="5.638192">
       <ele>312.4</ele>
       <time>2014-11-07T22:03:06Z</time>
      </trkpt>
      <trkpt lat="48.860836" lon="5.637781">
       <ele>317.54</ele>
       <time>2014-11-07T22:03:13Z</time>
      </trkpt>
      <trkpt lat="48.860973" lon="5.637063">
       <ele>321.32</ele>
       <time>2014-11-07T22:03:23Z</time>
      </trkpt>
      <trkpt lat="48.861148" lon="5.635550">
       <ele>326.04</ele>
       <time>2014-11-07T22:03:44Z</time>
      </trkpt>
      <trkpt lat="48.861244" lon="5.634027">
       <ele>334</ele>
       <time>2014-11-07T22:04:05Z</time>
      </trkpt>
      <trkpt lat="48.861209" lon="5.633253">
       <ele>339.07</ele>
       <time>2014-11-07T22:04:15Z</time>
      </trkpt>
      <trkpt lat="48.860950" lon="5.631442">
       <ele>348.23</ele>
       <time>2014-11-07T22:04:40Z</time>
      </trkpt>
      <trkpt lat="48.860877" lon="5.630684">
       <ele>352.08</ele>
       <time>2014-11-07T22:04:51Z</time>
      </trkpt>
      <trkpt lat="48.860877" lon="5.630159">
       <ele>353.47</ele>
       <time>2014-11-07T22:04:58Z</time>
      </trkpt>
      <trkpt lat="48.860946" lon="5.629642">
       <ele>353.59</ele>
       <time>2014-11-07T22:05:05Z</time>
      </trkpt>
      <trkpt lat="48.862426" lon="5.624784">
       <ele>363.29</ele>
       <time>2014-11-07T22:06:18Z</time>
      </trkpt>
      <trkpt lat="48.867839" lon="5.606043">
       <ele>357.02</ele>
       <time>2014-11-07T22:10:57Z</time>
      </trkpt>
      <trkpt lat="48.868686" lon="5.603137">
       <ele>366.9</ele>
       <time>2014-11-07T22:11:41Z</time>
      </trkpt>
      <trkpt lat="48.868831" lon="5.602759">
       <ele>366.35</ele>
       <time>2014-11-07T22:11:47Z</time>
      </trkpt>
      <trkpt lat="48.869602" lon="5.600279">
       <ele>356.76</ele>
       <time>2014-11-07T22:12:24Z</time>
      </trkpt>
      <trkpt lat="48.871349" lon="5.594151">
       <ele>350.5</ele>
       <time>2014-11-07T22:13:55Z</time>
      </trkpt>
      <trkpt lat="48.871448" lon="5.593534">
       <ele>349.29</ele>
       <time>2014-11-07T22:14:04Z</time>
      </trkpt>
      <trkpt lat="48.871486" lon="5.592865">
       <ele>346.74</ele>
       <time>2014-11-07T22:14:13Z</time>
      </trkpt>
      <trkpt lat="48.871883" lon="5.579957">
       <ele>328.11</ele>
       <time>2014-11-07T22:17:09Z</time>
      </trkpt>
      <trkpt lat="48.871963" lon="5.578594">
       <ele>331.67</ele>
       <time>2014-11-07T22:17:28Z</time>
      </trkpt>
      <trkpt lat="48.872150" lon="5.578155">
       <ele>329.74</ele>
       <time>2014-11-07T22:17:35Z</time>
      </trkpt>
      <trkpt lat="48.877128" lon="5.572789">
       <ele>306.43</ele>
       <time>2014-11-07T22:19:42Z</time>
      </trkpt>
      <trkpt lat="48.880340" lon="5.569255">
       <ele>286.67</ele>
       <time>2014-11-07T22:21:04Z</time>
      </trkpt>
      <trkpt lat="48.881713" lon="5.567739">
       <ele>280.01</ele>
       <time>2014-11-07T22:21:39Z</time>
      </trkpt>
      <trkpt lat="48.881950" lon="5.567401">
       <ele>279.71</ele>
       <time>2014-11-07T22:21:46Z</time>
      </trkpt>
      <trkpt lat="48.883838" lon="5.564586">
       <ele>271.89</ele>
       <time>2014-11-07T22:22:41Z</time>
      </trkpt>
      <trkpt lat="48.884910" lon="5.562845">
       <ele>261.87</ele>
       <time>2014-11-07T22:23:13Z</time>
      </trkpt>
      <trkpt lat="48.886573" lon="5.560246">
       <ele>247.15</ele>
       <time>2014-11-07T22:24:03Z</time>
      </trkpt>
      <trkpt lat="48.886714" lon="5.559772">
       <ele>244.72</ele>
       <time>2014-11-07T22:24:10Z</time>
      </trkpt>
      <trkpt lat="48.886791" lon="5.559161">
       <ele>242.19</ele>
       <time>2014-11-07T22:24:18Z</time>
      </trkpt>
      <trkpt lat="48.886844" lon="5.556723">
       <ele>229.49</ele>
       <time>2014-11-07T22:24:51Z</time>
      </trkpt>
      <trkpt lat="48.886814" lon="5.556512">
       <ele>229.14</ele>
       <time>2014-11-07T22:24:54Z</time>
      </trkpt>
      <trkpt lat="48.887477" lon="5.554963">
       <ele>229.38</ele>
       <time>2014-11-07T22:25:20Z</time>
      </trkpt>
      <trkpt lat="48.887653" lon="5.554420">
       <ele>230.04</ele>
       <time>2014-11-07T22:25:28Z</time>
      </trkpt>
      <trkpt lat="48.887718" lon="5.554103">
       <ele>230.3</ele>
       <time>2014-11-07T22:25:32Z</time>
      </trkpt>
      <trkpt lat="48.887771" lon="5.553533">
       <ele>228.77</ele>
       <time>2014-11-07T22:25:40Z</time>
      </trkpt>
      <trkpt lat="48.887729" lon="5.552710">
       <ele>225.71</ele>
       <time>2014-11-07T22:25:51Z</time>
      </trkpt>
      <trkpt lat="48.887660" lon="5.551951">
       <ele>225.34</ele>
       <time>2014-11-07T22:26:02Z</time>
      </trkpt>
      <trkpt lat="48.887386" lon="5.551026">
       <ele>226.84</ele>
       <time>2014-11-07T22:26:16Z</time>
      </trkpt>
      <trkpt lat="48.887649" lon="5.550283">
       <ele>225.34</ele>
       <time>2014-11-07T22:26:27Z</time>
      </trkpt>
      <trkpt lat="48.887878" lon="5.549414">
       <ele>224.94</ele>
       <time>2014-11-07T22:26:40Z</time>
      </trkpt>
      <trkpt lat="48.888011" lon="5.548531">
       <ele>225.4</ele>
       <time>2014-11-07T22:26:52Z</time>
      </trkpt>
      <trkpt lat="48.888057" lon="5.547895">
       <ele>226.38</ele>
       <time>2014-11-07T22:27:01Z</time>
      </trkpt>
      <trkpt lat="48.888141" lon="5.546707">
       <ele>224.89</ele>
       <time>2014-11-07T22:27:17Z</time>
      </trkpt>
      <trkpt lat="48.888805" lon="5.546761">
       <ele>229.12</ele>
       <time>2014-11-07T22:27:31Z</time>
      </trkpt>
      <trkpt lat="48.889083" lon="5.545826">
       <ele>225.83</ele>
       <time>2014-11-07T22:27:45Z</time>
      </trkpt>
      <trkpt lat="48.889167" lon="5.545476">
       <ele>227.3</ele>
       <time>2014-11-07T22:27:50Z</time>
      </trkpt>
      <trkpt lat="48.889286" lon="5.544804">
       <ele>230.19</ele>
       <time>2014-11-07T22:28:00Z</time>
      </trkpt>
      <trkpt lat="48.889442" lon="5.543776">
       <ele>229.5</ele>
       <time>2014-11-07T22:28:14Z</time>
      </trkpt>
      <trkpt lat="48.889736" lon="5.543067">
       <ele>226.83</ele>
       <time>2014-11-07T22:28:25Z</time>
      </trkpt>
      <trkpt lat="48.889869" lon="5.542795">
       <ele>225.35</ele>
       <time>2014-11-07T22:28:30Z</time>
      </trkpt>
      <trkpt lat="48.889965" lon="5.542653">
       <ele>224.38</ele>
       <time>2014-11-07T22:28:33Z</time>
      </trkpt>
      <trkpt lat="48.890064" lon="5.542552">
       <ele>223.99</ele>
       <time>2014-11-07T22:28:35Z</time>
      </trkpt>
      <trkpt lat="48.890232" lon="5.542475">
       <ele>224.58</ele>
       <time>2014-11-07T22:28:39Z</time>
      </trkpt>
      <trkpt lat="48.890567" lon="5.542387">
       <ele>226.45</ele>
       <time>2014-11-07T22:28:46Z</time>
      </trkpt>
      <trkpt lat="48.890693" lon="5.542331">
       <ele>226.92</ele>
       <time>2014-11-07T22:28:49Z</time>
      </trkpt>
      <trkpt lat="48.890865" lon="5.542222">
       <ele>226.99</ele>
       <time>2014-11-07T22:28:53Z</time>
      </trkpt>
      <trkpt lat="48.891002" lon="5.541841">
       <ele>224.37</ele>
       <time>2014-11-07T22:28:59Z</time>
      </trkpt>
      <trkpt lat="48.891826" lon="5.541726">
       <ele>223.75</ele>
       <time>2014-11-07T22:29:16Z</time>
      </trkpt>
      <trkpt lat="48.891983" lon="5.541748">
       <ele>223.36</ele>
       <time>2014-11-07T22:29:19Z</time>
      </trkpt>
      <trkpt lat="48.892074" lon="5.541531">
       <ele>222.21</ele>
       <time>2014-11-07T22:29:22Z</time>
      </trkpt>
      <trkpt lat="48.892196" lon="5.541244">
       <ele>221.08</ele>
       <time>2014-11-07T22:29:27Z</time>
      </trkpt>
      <trkpt lat="48.892246" lon="5.541285">
       <ele>221</ele>
       <time>2014-11-07T22:29:28Z</time>
      </trkpt>
      <trkpt lat="48.892311" lon="5.541247">
       <ele>220.67</ele>
       <time>2014-11-07T22:29:30Z</time>
      </trkpt>
      <trkpt lat="48.892330" lon="5.541181">
       <ele>220.45</ele>
       <time>2014-11-07T22:29:31Z</time>
      </trkpt>
      <trkpt lat="48.892314" lon="5.541096">
       <ele>220.3</ele>
       <time>2014-11-07T22:29:32Z</time>
      </trkpt>
      <trkpt lat="48.892471" lon="5.540803">
       <ele>219.14</ele>
       <time>2014-11-07T22:29:37Z</time>
      </trkpt>
      <trkpt lat="48.892601" lon="5.540513">
       <ele>219.29</ele>
       <time>2014-11-07T22:29:42Z</time>
      </trkpt>
      <trkpt lat="48.892642" lon="5.540534">
       <ele>219.24</ele>
       <time>2014-11-07T22:29:43Z</time>
      </trkpt>
      <trkpt lat="48.892681" lon="5.540501">
       <ele>219.23</ele>
       <time>2014-11-07T22:29:44Z</time>
      </trkpt>
      <trkpt lat="48.892692" lon="5.540433">
       <ele>219.26</ele>
       <time>2014-11-07T22:29:45Z</time>
      </trkpt>
      <trkpt lat="48.892673" lon="5.540376">
       <ele>219.32</ele>
       <time>2014-11-07T22:29:46Z</time>
      </trkpt>
      <trkpt lat="48.893161" lon="5.539429">
       <ele>217.59</ele>
       <time>2014-11-07T22:30:02Z</time>
      </trkpt>
      <trkpt lat="48.893936" lon="5.537830">
       <ele>217.83</ele>
       <time>2014-11-07T22:30:29Z</time>
      </trkpt>
      <trkpt lat="48.894084" lon="5.537727">
       <ele>218.42</ele>
       <time>2014-11-07T22:30:32Z</time>
      </trkpt>
      <trkpt lat="48.894107" lon="5.537747">
       <ele>218.48</ele>
       <time>2014-11-07T22:30:33Z</time>
      </trkpt>
      <trkpt lat="48.894134" lon="5.537737">
       <ele>218.59</ele>
       <time>2014-11-07T22:30:34Z</time>
      </trkpt>
      <trkpt lat="48.894340" lon="5.537817">
       <ele>218.99</ele>
       <time>2014-11-07T22:30:38Z</time>
      </trkpt>
      <trkpt lat="48.894432" lon="5.537809">
       <ele>219.18</ele>
       <time>2014-11-07T22:30:40Z</time>
      </trkpt>
      <trkpt lat="48.895141" lon="5.538053">
       <ele>220.16</ele>
       <time>2014-11-07T22:30:55Z</time>
      </trkpt>
      <trkpt lat="48.895328" lon="5.538104">
       <ele>219.47</ele>
       <time>2014-11-07T22:30:59Z</time>
      </trkpt>
      <trkpt lat="48.895755" lon="5.538136">
       <ele>217.78</ele>
       <time>2014-11-07T22:31:08Z</time>
      </trkpt>
      <trkpt lat="48.896160" lon="5.538196">
       <ele>216.87</ele>
       <time>2014-11-07T22:31:16Z</time>
      </trkpt>
      <trkpt lat="48.897098" lon="5.538229">
       <ele>216.06</ele>
       <time>2014-11-07T22:31:36Z</time>
      </trkpt>
      <trkpt lat="48.897590" lon="5.538194">
       <ele>216.09</ele>
       <time>2014-11-07T22:31:46Z</time>
      </trkpt>
      <trkpt lat="48.898345" lon="5.537992">
       <ele>216.61</ele>
       <time>2014-11-07T22:32:02Z</time>
      </trkpt>
      <trkpt lat="48.898944" lon="5.537722">
       <ele>217</ele>
       <time>2014-11-07T22:32:15Z</time>
      </trkpt>
      <trkpt lat="48.899715" lon="5.537147">
       <ele>216.62</ele>
       <time>2014-11-07T22:32:32Z</time>
      </trkpt>
      <trkpt lat="48.900875" lon="5.535874">
       <ele>215.04</ele>
       <time>2014-11-07T22:33:02Z</time>
      </trkpt>
      <trkpt lat="48.901920" lon="5.538478">
       <ele>213.63</ele>
       <time>2014-11-07T22:33:44Z</time>
      </trkpt>
    </trkseg>
  </trk>
</gpx>
